<?xml version="1.0" encoding="UTF-8" standalone="no" ?>
<gpx xmlns="http://www.topografix.com/GPX/1/1" xmlns:xsi="http://www.w3.org/2001/XMLSchema-instance" xsi:schemaLocation="http://www.topografix.com/GPX/1/1 http://www.topografix.com/GPX/1/1/gpx.xsd" version="1.1" creator="VisuGPX - https://www.visugpx.com">
  <metadata>
    <name>délocalisée au départ de la chandelette</name>
  </metadata>
  <trk>
    <name><![CDATA[Copie de Pélussin Randonnée]]></name>
    <extensions>
      <line xmlns="http://www.topografix.com/GPX/gpx_style/0/2">
        <color>0000FF</color>
        <width>4</width>
      </line>
    </extensions>
    <trkseg>
      <trkpt lat="45.41938" lon="4.62439">
        <ele>901.2</ele>
        <time>2023-07-28T10:42:19.000Z</time>
      </trkpt>
      <trkpt lat="45.41935" lon="4.62439">
        <ele>901.2</ele>
        <time>2023-07-28T10:42:19.004Z</time>
      </trkpt>
      <trkpt lat="45.41932" lon="4.62436">
        <ele>901.2</ele>
        <time>2023-07-28T10:42:19.013Z</time>
      </trkpt>
      <trkpt lat="45.4193" lon="4.62434">
        <ele>901.4</ele>
        <time>2023-07-28T10:42:19.024Z</time>
      </trkpt>
      <trkpt lat="45.41928" lon="4.6243">
        <ele>901.6</ele>
        <time>2023-07-28T10:42:19.039Z</time>
      </trkpt>
      <trkpt lat="45.41924" lon="4.62428">
        <ele>901.6</ele>
        <time>2023-07-28T10:42:19.059Z</time>
      </trkpt>
      <trkpt lat="45.41918" lon="4.62425">
        <ele>901.8</ele>
        <time>2023-07-28T10:42:19.087Z</time>
      </trkpt>
      <trkpt lat="45.41915" lon="4.62423">
        <ele>902</ele>
        <time>2023-07-28T10:42:19.119Z</time>
      </trkpt>
      <trkpt lat="45.41912" lon="4.62423">
        <ele>902</ele>
        <time>2023-07-28T10:42:19.154Z</time>
      </trkpt>
      <trkpt lat="45.41908" lon="4.62422">
        <ele>902</ele>
        <time>2023-07-28T10:42:19.194Z</time>
      </trkpt>
      <trkpt lat="45.41907" lon="4.62421">
        <ele>902.2</ele>
        <time>2023-07-28T10:42:19.235Z</time>
      </trkpt>
      <trkpt lat="45.41897" lon="4.62418">
        <ele>902.6</ele>
        <time>2023-07-28T10:42:19.288Z</time>
      </trkpt>
      <trkpt lat="45.41894" lon="4.62418">
        <ele>902.8</ele>
        <time>2023-07-28T10:42:19.345Z</time>
      </trkpt>
      <trkpt lat="45.41885" lon="4.62416">
        <ele>903</ele>
        <time>2023-07-28T10:42:19.413Z</time>
      </trkpt>
      <trkpt lat="45.41883" lon="4.62416">
        <ele>903</ele>
        <time>2023-07-28T10:42:19.483Z</time>
      </trkpt>
      <trkpt lat="45.4188" lon="4.62417">
        <ele>903.2</ele>
        <time>2023-07-28T10:42:19.556Z</time>
      </trkpt>
      <trkpt lat="45.41863" lon="4.62428">
        <ele>903.4</ele>
        <time>2023-07-28T10:42:19.652Z</time>
      </trkpt>
      <trkpt lat="45.41857" lon="4.6243">
        <ele>903.8</ele>
        <time>2023-07-28T10:42:19.755Z</time>
      </trkpt>
      <trkpt lat="45.41853" lon="4.62434">
        <ele>904</ele>
        <time>2023-07-28T10:42:19.864Z</time>
      </trkpt>
      <trkpt lat="45.4185" lon="4.62437">
        <ele>904</ele>
        <time>2023-07-28T10:42:19.977Z</time>
      </trkpt>
      <trkpt lat="45.41849" lon="4.62438">
        <ele>904.2</ele>
        <time>2023-07-28T10:42:20.091Z</time>
      </trkpt>
      <trkpt lat="45.41842" lon="4.62443">
        <ele>904.4</ele>
        <time>2023-07-28T10:42:20.214Z</time>
      </trkpt>
      <trkpt lat="45.4184" lon="4.62445">
        <ele>904.4</ele>
        <time>2023-07-28T10:42:20.340Z</time>
      </trkpt>
      <trkpt lat="45.4183" lon="4.62451">
        <ele>904.4</ele>
        <time>2023-07-28T10:42:20.479Z</time>
      </trkpt>
      <trkpt lat="45.41828" lon="4.62454">
        <ele>904.2</ele>
        <time>2023-07-28T10:42:20.622Z</time>
      </trkpt>
      <trkpt lat="45.41826" lon="4.62458">
        <ele>904.2</ele>
        <time>2023-07-28T10:42:20.769Z</time>
      </trkpt>
      <trkpt lat="45.41823" lon="4.62461">
        <ele>904.2</ele>
        <time>2023-07-28T10:42:20.920Z</time>
      </trkpt>
      <trkpt lat="45.41821" lon="4.62466">
        <ele>904.2</ele>
        <time>2023-07-28T10:42:21.076Z</time>
      </trkpt>
      <trkpt lat="45.41815" lon="4.62474">
        <ele>904.2</ele>
        <time>2023-07-28T10:42:21.241Z</time>
      </trkpt>
      <trkpt lat="45.41809" lon="4.62485">
        <ele>904.2</ele>
        <time>2023-07-28T10:42:21.418Z</time>
      </trkpt>
      <trkpt lat="45.41807" lon="4.62487">
        <ele>904.2</ele>
        <time>2023-07-28T10:42:21.598Z</time>
      </trkpt>
      <trkpt lat="45.41799" lon="4.62511">
        <ele>904.2</ele>
        <time>2023-07-28T10:42:21.800Z</time>
      </trkpt>
      <trkpt lat="45.41794" lon="4.62518">
        <ele>903.4</ele>
        <time>2023-07-28T10:42:22.010Z</time>
      </trkpt>
      <trkpt lat="45.41792" lon="4.62521">
        <ele>903.2</ele>
        <time>2023-07-28T10:42:22.224Z</time>
      </trkpt>
      <trkpt lat="45.4179" lon="4.62526">
        <ele>902.8</ele>
        <time>2023-07-28T10:42:22.442Z</time>
      </trkpt>
      <trkpt lat="45.4178" lon="4.62547">
        <ele>902.4</ele>
        <time>2023-07-28T10:42:22.682Z</time>
      </trkpt>
      <trkpt lat="45.41779" lon="4.62554">
        <ele>902</ele>
        <time>2023-07-28T10:42:22.928Z</time>
      </trkpt>
      <trkpt lat="45.41779" lon="4.62568">
        <ele>901</ele>
        <time>2023-07-28T10:42:23.186Z</time>
      </trkpt>
      <trkpt lat="45.4178" lon="4.62578">
        <ele>900.8</ele>
        <time>2023-07-28T10:42:23.452Z</time>
      </trkpt>
      <trkpt lat="45.41779" lon="4.62586">
        <ele>900.6</ele>
        <time>2023-07-28T10:42:23.725Z</time>
      </trkpt>
      <trkpt lat="45.41778" lon="4.62598">
        <ele>899.8</ele>
        <time>2023-07-28T10:42:24.008Z</time>
      </trkpt>
      <trkpt lat="45.4178" lon="4.62624">
        <ele>899.2</ele>
        <time>2023-07-28T10:42:24.312Z</time>
      </trkpt>
      <trkpt lat="45.41781" lon="4.62638">
        <ele>899</ele>
        <time>2023-07-28T10:42:24.628Z</time>
      </trkpt>
      <trkpt lat="45.41781" lon="4.62647">
        <ele>899</ele>
        <time>2023-07-28T10:42:24.952Z</time>
      </trkpt>
      <trkpt lat="45.41781" lon="4.6265">
        <ele>898.8</ele>
        <time>2023-07-28T10:42:25.278Z</time>
      </trkpt>
      <trkpt lat="45.41782" lon="4.62671">
        <ele>898.2</ele>
        <time>2023-07-28T10:42:25.622Z</time>
      </trkpt>
      <trkpt lat="45.41781" lon="4.62672">
        <ele>898</ele>
        <time>2023-07-28T10:42:25.967Z</time>
      </trkpt>
      <trkpt lat="45.4178" lon="4.62673">
        <ele>898</ele>
        <time>2023-07-28T10:42:26.314Z</time>
      </trkpt>
      <trkpt lat="45.41779" lon="4.62673">
        <ele>898</ele>
        <time>2023-07-28T10:42:26.662Z</time>
      </trkpt>
      <trkpt lat="45.41779" lon="4.62682">
        <ele>898</ele>
        <time>2023-07-28T10:42:27.018Z</time>
      </trkpt>
      <trkpt lat="45.41778" lon="4.62685">
        <ele>898</ele>
        <time>2023-07-28T10:42:27.376Z</time>
      </trkpt>
      <trkpt lat="45.41777" lon="4.62688">
        <ele>897.8</ele>
        <time>2023-07-28T10:42:27.737Z</time>
      </trkpt>
      <trkpt lat="45.41776" lon="4.62691">
        <ele>897.8</ele>
        <time>2023-07-28T10:42:28.100Z</time>
      </trkpt>
      <trkpt lat="45.41777" lon="4.62712">
        <ele>897.4</ele>
        <time>2023-07-28T10:42:28.481Z</time>
      </trkpt>
      <trkpt lat="45.41777" lon="4.62719">
        <ele>897</ele>
        <time>2023-07-28T10:42:28.868Z</time>
      </trkpt>
      <trkpt lat="45.41778" lon="4.62731">
        <ele>896.8</ele>
        <time>2023-07-28T10:42:29.265Z</time>
      </trkpt>
      <trkpt lat="45.41779" lon="4.62748">
        <ele>896.8</ele>
        <time>2023-07-28T10:42:29.676Z</time>
      </trkpt>
      <trkpt lat="45.41778" lon="4.62757">
        <ele>896.8</ele>
        <time>2023-07-28T10:42:30.095Z</time>
      </trkpt>
      <trkpt lat="45.41783" lon="4.62777">
        <ele>895.6</ele>
        <time>2023-07-28T10:42:30.531Z</time>
      </trkpt>
      <trkpt lat="45.41783" lon="4.62805">
        <ele>895</ele>
        <time>2023-07-28T10:42:30.990Z</time>
      </trkpt>
      <trkpt lat="45.41785" lon="4.62822">
        <ele>895</ele>
        <time>2023-07-28T10:42:31.463Z</time>
      </trkpt>
      <trkpt lat="45.41788" lon="4.62835">
        <ele>894.6</ele>
        <time>2023-07-28T10:42:31.948Z</time>
      </trkpt>
      <trkpt lat="45.41788" lon="4.6284">
        <ele>894.6</ele>
        <time>2023-07-28T10:42:32.437Z</time>
      </trkpt>
      <trkpt lat="45.4179" lon="4.6286">
        <ele>894</ele>
        <time>2023-07-28T10:42:32.943Z</time>
      </trkpt>
      <trkpt lat="45.41792" lon="4.62878">
        <ele>894.6</ele>
        <time>2023-07-28T10:42:33.464Z</time>
      </trkpt>
      <trkpt lat="45.41792" lon="4.62881">
        <ele>894.2</ele>
        <time>2023-07-28T10:42:33.988Z</time>
      </trkpt>
      <trkpt lat="45.41791" lon="4.62889">
        <ele>893.8</ele>
        <time>2023-07-28T10:42:34.519Z</time>
      </trkpt>
      <trkpt lat="45.4179" lon="4.62897">
        <ele>893.6</ele>
        <time>2023-07-28T10:42:35.056Z</time>
      </trkpt>
      <trkpt lat="45.41786" lon="4.62922">
        <ele>892.6</ele>
        <time>2023-07-28T10:42:35.615Z</time>
      </trkpt>
      <trkpt lat="45.41787" lon="4.62931">
        <ele>892.6</ele>
        <time>2023-07-28T10:42:36.181Z</time>
      </trkpt>
      <trkpt lat="45.41786" lon="4.62935">
        <ele>892.4</ele>
        <time>2023-07-28T10:42:36.750Z</time>
      </trkpt>
      <trkpt lat="45.41785" lon="4.62942">
        <ele>892.4</ele>
        <time>2023-07-28T10:42:37.325Z</time>
      </trkpt>
      <trkpt lat="45.41779" lon="4.62967">
        <ele>892.2</ele>
        <time>2023-07-28T10:42:37.923Z</time>
      </trkpt>
      <trkpt lat="45.41775" lon="4.62986">
        <ele>892.2</ele>
        <time>2023-07-28T10:42:38.537Z</time>
      </trkpt>
      <trkpt lat="45.41774" lon="4.62995">
        <ele>891.4</ele>
        <time>2023-07-28T10:42:39.159Z</time>
      </trkpt>
      <trkpt lat="45.41772" lon="4.63016">
        <ele>890.4</ele>
        <time>2023-07-28T10:42:39.799Z</time>
      </trkpt>
      <trkpt lat="45.41771" lon="4.63042">
        <ele>890</ele>
        <time>2023-07-28T10:42:40.460Z</time>
      </trkpt>
      <trkpt lat="45.41769" lon="4.63054">
        <ele>889.4</ele>
        <time>2023-07-28T10:42:41.131Z</time>
      </trkpt>
      <trkpt lat="45.41765" lon="4.63077">
        <ele>888.4</ele>
        <time>2023-07-28T10:42:41.822Z</time>
      </trkpt>
      <trkpt lat="45.41762" lon="4.63097">
        <ele>887.8</ele>
        <time>2023-07-28T10:42:42.530Z</time>
      </trkpt>
      <trkpt lat="45.41758" lon="4.63113">
        <ele>887.2</ele>
        <time>2023-07-28T10:42:43.252Z</time>
      </trkpt>
      <trkpt lat="45.41749" lon="4.63135">
        <ele>886.2</ele>
        <time>2023-07-28T10:42:43.996Z</time>
      </trkpt>
      <trkpt lat="45.41738" lon="4.63157">
        <ele>885.8</ele>
        <time>2023-07-28T10:42:44.762Z</time>
      </trkpt>
      <trkpt lat="45.41736" lon="4.63163">
        <ele>885.8</ele>
        <time>2023-07-28T10:42:45.533Z</time>
      </trkpt>
      <trkpt lat="45.41726" lon="4.63174">
        <ele>886.4</ele>
        <time>2023-07-28T10:42:46.320Z</time>
      </trkpt>
      <trkpt lat="45.41724" lon="4.63176">
        <ele>886.4</ele>
        <time>2023-07-28T10:42:47.109Z</time>
      </trkpt>
      <trkpt lat="45.41722" lon="4.63179">
        <ele>886.6</ele>
        <time>2023-07-28T10:42:47.901Z</time>
      </trkpt>
      <trkpt lat="45.4172" lon="4.63181">
        <ele>886.6</ele>
        <time>2023-07-28T10:42:48.696Z</time>
      </trkpt>
      <trkpt lat="45.41708" lon="4.63189">
        <ele>886.2</ele>
        <time>2023-07-28T10:42:49.507Z</time>
      </trkpt>
      <trkpt lat="45.41705" lon="4.63185">
        <ele>886.8</ele>
        <time>2023-07-28T10:42:50.323Z</time>
      </trkpt>
      <trkpt lat="45.41695" lon="4.63181">
        <ele>886.2</ele>
        <time>2023-07-28T10:42:51.151Z</time>
      </trkpt>
      <trkpt lat="45.41691" lon="4.6318">
        <ele>886.4</ele>
        <time>2023-07-28T10:42:51.984Z</time>
      </trkpt>
      <trkpt lat="45.4169" lon="4.63179">
        <ele>886.6</ele>
        <time>2023-07-28T10:42:52.818Z</time>
      </trkpt>
      <trkpt lat="45.41689" lon="4.63179">
        <ele>886.6</ele>
        <time>2023-07-28T10:42:53.654Z</time>
      </trkpt>
      <trkpt lat="45.41687" lon="4.63178">
        <ele>886.6</ele>
        <time>2023-07-28T10:42:54.492Z</time>
      </trkpt>
      <trkpt lat="45.41672" lon="4.63174">
        <ele>886.8</ele>
        <time>2023-07-28T10:42:55.348Z</time>
      </trkpt>
      <trkpt lat="45.41657" lon="4.63168">
        <ele>887.2</ele>
        <time>2023-07-28T10:42:56.222Z</time>
      </trkpt>
      <trkpt lat="45.41648" lon="4.63165">
        <ele>887.4</ele>
        <time>2023-07-28T10:42:57.108Z</time>
      </trkpt>
      <trkpt lat="45.4163" lon="4.63157">
        <ele>887</ele>
        <time>2023-07-28T10:42:58.016Z</time>
      </trkpt>
      <trkpt lat="45.41622" lon="4.63155">
        <ele>887.2</ele>
        <time>2023-07-28T10:42:58.933Z</time>
      </trkpt>
      <trkpt lat="45.41617" lon="4.63151">
        <ele>887.6</ele>
        <time>2023-07-28T10:42:59.858Z</time>
      </trkpt>
      <trkpt lat="45.41616" lon="4.6315">
        <ele>887.6</ele>
        <time>2023-07-28T10:43:00.784Z</time>
      </trkpt>
      <trkpt lat="45.41612" lon="4.63149">
        <ele>887.6</ele>
        <time>2023-07-28T10:43:01.714Z</time>
      </trkpt>
      <trkpt lat="45.41599" lon="4.63145">
        <ele>888.2</ele>
        <time>2023-07-28T10:43:02.660Z</time>
      </trkpt>
      <trkpt lat="45.41595" lon="4.63144">
        <ele>888</ele>
        <time>2023-07-28T10:43:03.611Z</time>
      </trkpt>
      <trkpt lat="45.41577" lon="4.6314">
        <ele>888</ele>
        <time>2023-07-28T10:43:04.584Z</time>
      </trkpt>
      <trkpt lat="45.41573" lon="4.63138">
        <ele>888</ele>
        <time>2023-07-28T10:43:05.561Z</time>
      </trkpt>
      <trkpt lat="45.41572" lon="4.63134">
        <ele>888</ele>
        <time>2023-07-28T10:43:06.541Z</time>
      </trkpt>
      <trkpt lat="45.4157" lon="4.63134">
        <ele>888</ele>
        <time>2023-07-28T10:43:07.524Z</time>
      </trkpt>
      <trkpt lat="45.41568" lon="4.63132">
        <ele>888.2</ele>
        <time>2023-07-28T10:43:08.509Z</time>
      </trkpt>
      <trkpt lat="45.41566" lon="4.6313">
        <ele>888.8</ele>
        <time>2023-07-28T10:43:09.498Z</time>
      </trkpt>
      <trkpt lat="45.41564" lon="4.63128">
        <ele>889.2</ele>
        <time>2023-07-28T10:43:10.490Z</time>
      </trkpt>
      <trkpt lat="45.41562" lon="4.63128">
        <ele>889.6</ele>
        <time>2023-07-28T10:43:11.484Z</time>
      </trkpt>
      <trkpt lat="45.41561" lon="4.63128">
        <ele>890</ele>
        <time>2023-07-28T10:43:12.479Z</time>
      </trkpt>
      <trkpt lat="45.4156" lon="4.63128">
        <ele>890.4</ele>
        <time>2023-07-28T10:43:13.475Z</time>
      </trkpt>
      <trkpt lat="45.41557" lon="4.63128">
        <ele>891.4</ele>
        <time>2023-07-28T10:43:14.475Z</time>
      </trkpt>
      <trkpt lat="45.41555" lon="4.63125">
        <ele>891.8</ele>
        <time>2023-07-28T10:43:15.479Z</time>
      </trkpt>
      <trkpt lat="45.41551" lon="4.63119">
        <ele>892.8</ele>
        <time>2023-07-28T10:43:16.489Z</time>
      </trkpt>
      <trkpt lat="45.41549" lon="4.63116">
        <ele>893.2</ele>
        <time>2023-07-28T10:43:17.502Z</time>
      </trkpt>
      <trkpt lat="45.41549" lon="4.63116">
        <ele>893.4</ele>
        <time>2023-07-28T10:43:18.516Z</time>
      </trkpt>
      <trkpt lat="45.41548" lon="4.63115">
        <ele>893.8</ele>
        <time>2023-07-28T10:43:19.531Z</time>
      </trkpt>
      <trkpt lat="45.41545" lon="4.63113">
        <ele>894.8</ele>
        <time>2023-07-28T10:43:20.550Z</time>
      </trkpt>
      <trkpt lat="45.41541" lon="4.63113">
        <ele>895.8</ele>
        <time>2023-07-28T10:43:21.574Z</time>
      </trkpt>
      <trkpt lat="45.41538" lon="4.6311">
        <ele>896.8</ele>
        <time>2023-07-28T10:43:22.602Z</time>
      </trkpt>
      <trkpt lat="45.41534" lon="4.63105">
        <ele>898</ele>
        <time>2023-07-28T10:43:23.636Z</time>
      </trkpt>
      <trkpt lat="45.41532" lon="4.63102">
        <ele>899</ele>
        <time>2023-07-28T10:43:24.673Z</time>
      </trkpt>
      <trkpt lat="45.41531" lon="4.63097">
        <ele>900.2</ele>
        <time>2023-07-28T10:43:25.715Z</time>
      </trkpt>
      <trkpt lat="45.41527" lon="4.6309">
        <ele>901.4</ele>
        <time>2023-07-28T10:43:26.765Z</time>
      </trkpt>
      <trkpt lat="45.41522" lon="4.63088">
        <ele>902.4</ele>
        <time>2023-07-28T10:43:27.821Z</time>
      </trkpt>
      <trkpt lat="45.41518" lon="4.63084">
        <ele>903.4</ele>
        <time>2023-07-28T10:43:28.883Z</time>
      </trkpt>
      <trkpt lat="45.41512" lon="4.63078">
        <ele>904.6</ele>
        <time>2023-07-28T10:43:29.953Z</time>
      </trkpt>
      <trkpt lat="45.41511" lon="4.63076">
        <ele>905.6</ele>
        <time>2023-07-28T10:43:31.026Z</time>
      </trkpt>
      <trkpt lat="45.41509" lon="4.63077">
        <ele>906.4</ele>
        <time>2023-07-28T10:43:32.100Z</time>
      </trkpt>
      <trkpt lat="45.41508" lon="4.63078">
        <ele>906.8</ele>
        <time>2023-07-28T10:43:33.175Z</time>
      </trkpt>
      <trkpt lat="45.41505" lon="4.63078">
        <ele>907.8</ele>
        <time>2023-07-28T10:43:34.254Z</time>
      </trkpt>
      <trkpt lat="45.415" lon="4.63078">
        <ele>908.8</ele>
        <time>2023-07-28T10:43:35.339Z</time>
      </trkpt>
      <trkpt lat="45.41492" lon="4.6308">
        <ele>909.6</ele>
        <time>2023-07-28T10:43:36.434Z</time>
      </trkpt>
      <trkpt lat="45.41489" lon="4.63078">
        <ele>910</ele>
        <time>2023-07-28T10:43:37.533Z</time>
      </trkpt>
      <trkpt lat="45.41488" lon="4.63078">
        <ele>910</ele>
        <time>2023-07-28T10:43:38.634Z</time>
      </trkpt>
      <trkpt lat="45.4148" lon="4.63073">
        <ele>911</ele>
        <time>2023-07-28T10:43:39.744Z</time>
      </trkpt>
      <trkpt lat="45.41476" lon="4.6307">
        <ele>912.2</ele>
        <time>2023-07-28T10:43:40.860Z</time>
      </trkpt>
      <trkpt lat="45.41472" lon="4.63068">
        <ele>913.2</ele>
        <time>2023-07-28T10:43:41.981Z</time>
      </trkpt>
      <trkpt lat="45.41465" lon="4.63066">
        <ele>914.4</ele>
        <time>2023-07-28T10:43:43.111Z</time>
      </trkpt>
      <trkpt lat="45.41462" lon="4.63066">
        <ele>915.4</ele>
        <time>2023-07-28T10:43:44.244Z</time>
      </trkpt>
      <trkpt lat="45.41457" lon="4.63065">
        <ele>916.6</ele>
        <time>2023-07-28T10:43:45.383Z</time>
      </trkpt>
      <trkpt lat="45.41448" lon="4.63062">
        <ele>917.6</ele>
        <time>2023-07-28T10:43:46.533Z</time>
      </trkpt>
      <trkpt lat="45.41439" lon="4.63062">
        <ele>918.6</ele>
        <time>2023-07-28T10:43:47.693Z</time>
      </trkpt>
      <trkpt lat="45.4143" lon="4.63056">
        <ele>919.6</ele>
        <time>2023-07-28T10:43:48.864Z</time>
      </trkpt>
      <trkpt lat="45.41426" lon="4.63049">
        <ele>920.8</ele>
        <time>2023-07-28T10:43:50.044Z</time>
      </trkpt>
      <trkpt lat="45.41422" lon="4.63043">
        <ele>921.8</ele>
        <time>2023-07-28T10:43:51.230Z</time>
      </trkpt>
      <trkpt lat="45.41421" lon="4.63042">
        <ele>922</ele>
        <time>2023-07-28T10:43:52.417Z</time>
      </trkpt>
      <trkpt lat="45.4142" lon="4.63041">
        <ele>922.2</ele>
        <time>2023-07-28T10:43:53.606Z</time>
      </trkpt>
      <trkpt lat="45.41418" lon="4.63036">
        <ele>922.8</ele>
        <time>2023-07-28T10:43:54.800Z</time>
      </trkpt>
      <trkpt lat="45.41411" lon="4.63034">
        <ele>923.8</ele>
        <time>2023-07-28T10:43:56.002Z</time>
      </trkpt>
      <trkpt lat="45.41402" lon="4.63021">
        <ele>925</ele>
        <time>2023-07-28T10:43:57.219Z</time>
      </trkpt>
      <trkpt lat="45.41399" lon="4.63015">
        <ele>926</ele>
        <time>2023-07-28T10:43:58.443Z</time>
      </trkpt>
      <trkpt lat="45.41398" lon="4.63013">
        <ele>927</ele>
        <time>2023-07-28T10:43:59.668Z</time>
      </trkpt>
      <trkpt lat="45.41397" lon="4.63009">
        <ele>928.2</ele>
        <time>2023-07-28T10:44:00.897Z</time>
      </trkpt>
      <trkpt lat="45.41395" lon="4.63006">
        <ele>929.2</ele>
        <time>2023-07-28T10:44:02.129Z</time>
      </trkpt>
      <trkpt lat="45.41394" lon="4.63001">
        <ele>930.4</ele>
        <time>2023-07-28T10:44:03.366Z</time>
      </trkpt>
      <trkpt lat="45.41394" lon="4.62995">
        <ele>931.4</ele>
        <time>2023-07-28T10:44:04.608Z</time>
      </trkpt>
      <trkpt lat="45.41394" lon="4.62989">
        <ele>932.6</ele>
        <time>2023-07-28T10:44:05.855Z</time>
      </trkpt>
      <trkpt lat="45.41394" lon="4.62987">
        <ele>933.8</ele>
        <time>2023-07-28T10:44:07.104Z</time>
      </trkpt>
      <trkpt lat="45.41394" lon="4.62984">
        <ele>935</ele>
        <time>2023-07-28T10:44:08.355Z</time>
      </trkpt>
      <trkpt lat="45.41397" lon="4.62981">
        <ele>936</ele>
        <time>2023-07-28T10:44:09.610Z</time>
      </trkpt>
      <trkpt lat="45.41398" lon="4.62975">
        <ele>937</ele>
        <time>2023-07-28T10:44:10.870Z</time>
      </trkpt>
      <trkpt lat="45.41399" lon="4.62966">
        <ele>938.2</ele>
        <time>2023-07-28T10:44:12.137Z</time>
      </trkpt>
      <trkpt lat="45.41399" lon="4.62964">
        <ele>939.4</ele>
        <time>2023-07-28T10:44:13.406Z</time>
      </trkpt>
      <trkpt lat="45.41401" lon="4.62961">
        <ele>940.6</ele>
        <time>2023-07-28T10:44:14.679Z</time>
      </trkpt>
      <trkpt lat="45.41401" lon="4.62955">
        <ele>941.6</ele>
        <time>2023-07-28T10:44:15.956Z</time>
      </trkpt>
      <trkpt lat="45.41399" lon="4.62952">
        <ele>942.8</ele>
        <time>2023-07-28T10:44:17.237Z</time>
      </trkpt>
      <trkpt lat="45.41403" lon="4.62942">
        <ele>943.8</ele>
        <time>2023-07-28T10:44:18.527Z</time>
      </trkpt>
      <trkpt lat="45.41402" lon="4.62938">
        <ele>944.8</ele>
        <time>2023-07-28T10:44:19.821Z</time>
      </trkpt>
      <trkpt lat="45.41402" lon="4.62931">
        <ele>946</ele>
        <time>2023-07-28T10:44:21.121Z</time>
      </trkpt>
      <trkpt lat="45.41404" lon="4.62926">
        <ele>947</ele>
        <time>2023-07-28T10:44:22.425Z</time>
      </trkpt>
      <trkpt lat="45.41402" lon="4.6292">
        <ele>948.2</ele>
        <time>2023-07-28T10:44:23.735Z</time>
      </trkpt>
      <trkpt lat="45.41387" lon="4.62911">
        <ele>948.4</ele>
        <time>2023-07-28T10:44:25.064Z</time>
      </trkpt>
      <trkpt lat="45.41385" lon="4.62911">
        <ele>948.4</ele>
        <time>2023-07-28T10:44:26.396Z</time>
      </trkpt>
      <trkpt lat="45.41383" lon="4.62909">
        <ele>948.4</ele>
        <time>2023-07-28T10:44:27.731Z</time>
      </trkpt>
      <trkpt lat="45.41382" lon="4.62908">
        <ele>948.4</ele>
        <time>2023-07-28T10:44:29.068Z</time>
      </trkpt>
      <trkpt lat="45.41373" lon="4.62896">
        <ele>949.2</ele>
        <time>2023-07-28T10:44:30.419Z</time>
      </trkpt>
      <trkpt lat="45.41369" lon="4.62887">
        <ele>950.4</ele>
        <time>2023-07-28T10:44:31.779Z</time>
      </trkpt>
      <trkpt lat="45.41363" lon="4.62884">
        <ele>951.4</ele>
        <time>2023-07-28T10:44:33.146Z</time>
      </trkpt>
      <trkpt lat="45.41358" lon="4.62877">
        <ele>952.4</ele>
        <time>2023-07-28T10:44:34.521Z</time>
      </trkpt>
      <trkpt lat="45.41351" lon="4.62872">
        <ele>953.4</ele>
        <time>2023-07-28T10:44:35.906Z</time>
      </trkpt>
      <trkpt lat="45.41348" lon="4.62864">
        <ele>954.4</ele>
        <time>2023-07-28T10:44:37.299Z</time>
      </trkpt>
      <trkpt lat="45.41346" lon="4.62863">
        <ele>954.8</ele>
        <time>2023-07-28T10:44:38.694Z</time>
      </trkpt>
      <trkpt lat="45.41343" lon="4.62852">
        <ele>955.6</ele>
        <time>2023-07-28T10:44:40.098Z</time>
      </trkpt>
      <trkpt lat="45.41339" lon="4.62845">
        <ele>956.6</ele>
        <time>2023-07-28T10:44:41.510Z</time>
      </trkpt>
      <trkpt lat="45.41337" lon="4.62839">
        <ele>957.6</ele>
        <time>2023-07-28T10:44:42.927Z</time>
      </trkpt>
      <trkpt lat="45.41337" lon="4.62838">
        <ele>957.8</ele>
        <time>2023-07-28T10:44:44.346Z</time>
      </trkpt>
      <trkpt lat="45.41336" lon="4.62837">
        <ele>957.8</ele>
        <time>2023-07-28T10:44:45.765Z</time>
      </trkpt>
      <trkpt lat="45.41335" lon="4.62835">
        <ele>958.2</ele>
        <time>2023-07-28T10:44:47.187Z</time>
      </trkpt>
      <trkpt lat="45.41334" lon="4.62833">
        <ele>958.8</ele>
        <time>2023-07-28T10:44:48.611Z</time>
      </trkpt>
      <trkpt lat="45.41333" lon="4.62827">
        <ele>959.8</ele>
        <time>2023-07-28T10:44:50.040Z</time>
      </trkpt>
      <trkpt lat="45.41332" lon="4.62822">
        <ele>961</ele>
        <time>2023-07-28T10:44:51.473Z</time>
      </trkpt>
      <trkpt lat="45.41331" lon="4.62815">
        <ele>962.2</ele>
        <time>2023-07-28T10:44:52.912Z</time>
      </trkpt>
      <trkpt lat="45.41329" lon="4.62813">
        <ele>963.2</ele>
        <time>2023-07-28T10:44:54.355Z</time>
      </trkpt>
      <trkpt lat="45.41325" lon="4.6281">
        <ele>964.4</ele>
        <time>2023-07-28T10:44:55.803Z</time>
      </trkpt>
      <trkpt lat="45.41321" lon="4.62801">
        <ele>965.4</ele>
        <time>2023-07-28T10:44:57.259Z</time>
      </trkpt>
      <trkpt lat="45.4132" lon="4.62796">
        <ele>966.6</ele>
        <time>2023-07-28T10:44:58.720Z</time>
      </trkpt>
      <trkpt lat="45.41316" lon="4.62791">
        <ele>967.8</ele>
        <time>2023-07-28T10:45:00.188Z</time>
      </trkpt>
      <trkpt lat="45.41313" lon="4.62785">
        <ele>968.8</ele>
        <time>2023-07-28T10:45:01.661Z</time>
      </trkpt>
      <trkpt lat="45.41312" lon="4.62781">
        <ele>970</ele>
        <time>2023-07-28T10:45:03.138Z</time>
      </trkpt>
      <trkpt lat="45.41311" lon="4.62778">
        <ele>971</ele>
        <time>2023-07-28T10:45:04.618Z</time>
      </trkpt>
      <trkpt lat="45.41307" lon="4.62767">
        <ele>972</ele>
        <time>2023-07-28T10:45:06.108Z</time>
      </trkpt>
      <trkpt lat="45.41302" lon="4.62756">
        <ele>973.2</ele>
        <time>2023-07-28T10:45:07.609Z</time>
      </trkpt>
      <trkpt lat="45.41296" lon="4.62748">
        <ele>974.2</ele>
        <time>2023-07-28T10:45:09.120Z</time>
      </trkpt>
      <trkpt lat="45.41295" lon="4.62747">
        <ele>974.6</ele>
        <time>2023-07-28T10:45:10.632Z</time>
      </trkpt>
      <trkpt lat="45.41292" lon="4.62744">
        <ele>975.2</ele>
        <time>2023-07-28T10:45:12.148Z</time>
      </trkpt>
      <trkpt lat="45.41291" lon="4.62738">
        <ele>976.4</ele>
        <time>2023-07-28T10:45:13.670Z</time>
      </trkpt>
      <trkpt lat="45.41291" lon="4.62732">
        <ele>977.4</ele>
        <time>2023-07-28T10:45:15.197Z</time>
      </trkpt>
      <trkpt lat="45.41285" lon="4.62719">
        <ele>978</ele>
        <time>2023-07-28T10:45:16.736Z</time>
      </trkpt>
      <trkpt lat="45.41268" lon="4.62715">
        <ele>976.6</ele>
        <time>2023-07-28T10:45:18.296Z</time>
      </trkpt>
      <trkpt lat="45.41264" lon="4.62714">
        <ele>976.4</ele>
        <time>2023-07-28T10:45:19.860Z</time>
      </trkpt>
      <trkpt lat="45.41261" lon="4.62713">
        <ele>976.4</ele>
        <time>2023-07-28T10:45:21.428Z</time>
      </trkpt>
      <trkpt lat="45.41263" lon="4.62709">
        <ele>976</ele>
        <time>2023-07-28T10:45:23.000Z</time>
      </trkpt>
      <trkpt lat="45.41249" lon="4.62697">
        <ele>975.4</ele>
        <time>2023-07-28T10:45:24.591Z</time>
      </trkpt>
      <trkpt lat="45.41247" lon="4.62696">
        <ele>975.4</ele>
        <time>2023-07-28T10:45:26.185Z</time>
      </trkpt>
      <trkpt lat="45.41241" lon="4.62693">
        <ele>974.2</ele>
        <time>2023-07-28T10:45:27.787Z</time>
      </trkpt>
      <trkpt lat="45.41239" lon="4.6269">
        <ele>974.2</ele>
        <time>2023-07-28T10:45:29.392Z</time>
      </trkpt>
      <trkpt lat="45.41237" lon="4.62688">
        <ele>973.8</ele>
        <time>2023-07-28T10:45:31.000Z</time>
      </trkpt>
      <trkpt lat="45.41234" lon="4.62685">
        <ele>973.6</ele>
        <time>2023-07-28T10:45:32.612Z</time>
      </trkpt>
      <trkpt lat="45.41229" lon="4.62675">
        <ele>973.2</ele>
        <time>2023-07-28T10:45:34.234Z</time>
      </trkpt>
      <trkpt lat="45.41229" lon="4.62672">
        <ele>973</ele>
        <time>2023-07-28T10:45:35.859Z</time>
      </trkpt>
      <trkpt lat="45.41226" lon="4.6267">
        <ele>972.8</ele>
        <time>2023-07-28T10:45:37.488Z</time>
      </trkpt>
      <trkpt lat="45.41218" lon="4.62664">
        <ele>972.4</ele>
        <time>2023-07-28T10:45:39.127Z</time>
      </trkpt>
      <trkpt lat="45.41215" lon="4.62663">
        <ele>972.2</ele>
        <time>2023-07-28T10:45:40.770Z</time>
      </trkpt>
      <trkpt lat="45.41213" lon="4.62665">
        <ele>972.2</ele>
        <time>2023-07-28T10:45:42.416Z</time>
      </trkpt>
      <trkpt lat="45.41213" lon="4.62668">
        <ele>972.4</ele>
        <time>2023-07-28T10:45:44.065Z</time>
      </trkpt>
      <trkpt lat="45.41213" lon="4.6267">
        <ele>972.4</ele>
        <time>2023-07-28T10:45:45.715Z</time>
      </trkpt>
      <trkpt lat="45.41202" lon="4.62655">
        <ele>972.2</ele>
        <time>2023-07-28T10:45:47.383Z</time>
      </trkpt>
      <trkpt lat="45.41201" lon="4.62654">
        <ele>972.2</ele>
        <time>2023-07-28T10:45:49.053Z</time>
      </trkpt>
      <trkpt lat="45.41198" lon="4.62651">
        <ele>972</ele>
        <time>2023-07-28T10:45:50.727Z</time>
      </trkpt>
      <trkpt lat="45.41185" lon="4.62638">
        <ele>971.4</ele>
        <time>2023-07-28T10:45:52.420Z</time>
      </trkpt>
      <trkpt lat="45.4118" lon="4.62635">
        <ele>971.6</ele>
        <time>2023-07-28T10:45:54.119Z</time>
      </trkpt>
      <trkpt lat="45.41171" lon="4.62628">
        <ele>971.4</ele>
        <time>2023-07-28T10:45:55.830Z</time>
      </trkpt>
      <trkpt lat="45.41168" lon="4.62627">
        <ele>971.2</ele>
        <time>2023-07-28T10:45:57.544Z</time>
      </trkpt>
      <trkpt lat="45.41158" lon="4.62625">
        <ele>970.8</ele>
        <time>2023-07-28T10:45:59.271Z</time>
      </trkpt>
      <trkpt lat="45.41155" lon="4.62623">
        <ele>970.8</ele>
        <time>2023-07-28T10:46:01.002Z</time>
      </trkpt>
      <trkpt lat="45.4115" lon="4.62621">
        <ele>970.8</ele>
        <time>2023-07-28T10:46:02.739Z</time>
      </trkpt>
      <trkpt lat="45.41145" lon="4.62614">
        <ele>970.8</ele>
        <time>2023-07-28T10:46:04.484Z</time>
      </trkpt>
      <trkpt lat="45.41141" lon="4.62611">
        <ele>970.6</ele>
        <time>2023-07-28T10:46:06.234Z</time>
      </trkpt>
      <trkpt lat="45.4114" lon="4.62609">
        <ele>970.4</ele>
        <time>2023-07-28T10:46:07.987Z</time>
      </trkpt>
      <trkpt lat="45.41136" lon="4.62601">
        <ele>970.2</ele>
        <time>2023-07-28T10:46:09.748Z</time>
      </trkpt>
      <trkpt lat="45.41135" lon="4.62599">
        <ele>970</ele>
        <time>2023-07-28T10:46:11.511Z</time>
      </trkpt>
      <trkpt lat="45.41134" lon="4.62597">
        <ele>969.8</ele>
        <time>2023-07-28T10:46:13.276Z</time>
      </trkpt>
      <trkpt lat="45.41125" lon="4.62586">
        <ele>969.4</ele>
        <time>2023-07-28T10:46:15.055Z</time>
      </trkpt>
      <trkpt lat="45.41123" lon="4.62584">
        <ele>969.4</ele>
        <time>2023-07-28T10:46:16.837Z</time>
      </trkpt>
      <trkpt lat="45.41118" lon="4.62575">
        <ele>969.2</ele>
        <time>2023-07-28T10:46:18.629Z</time>
      </trkpt>
      <trkpt lat="45.41116" lon="4.62573">
        <ele>969</ele>
        <time>2023-07-28T10:46:20.423Z</time>
      </trkpt>
      <trkpt lat="45.41102" lon="4.62554">
        <ele>968.2</ele>
        <time>2023-07-28T10:46:22.240Z</time>
      </trkpt>
      <trkpt lat="45.41095" lon="4.62553">
        <ele>968</ele>
        <time>2023-07-28T10:46:24.065Z</time>
      </trkpt>
      <trkpt lat="45.41076" lon="4.62554">
        <ele>967.2</ele>
        <time>2023-07-28T10:46:25.913Z</time>
      </trkpt>
      <trkpt lat="45.41074" lon="4.62555">
        <ele>967.2</ele>
        <time>2023-07-28T10:46:27.764Z</time>
      </trkpt>
      <trkpt lat="45.41072" lon="4.62554">
        <ele>966.8</ele>
        <time>2023-07-28T10:46:29.618Z</time>
      </trkpt>
      <trkpt lat="45.41067" lon="4.6255">
        <ele>966.6</ele>
        <time>2023-07-28T10:46:31.477Z</time>
      </trkpt>
      <trkpt lat="45.41061" lon="4.62544">
        <ele>966.6</ele>
        <time>2023-07-28T10:46:33.345Z</time>
      </trkpt>
      <trkpt lat="45.41056" lon="4.62539">
        <ele>966.6</ele>
        <time>2023-07-28T10:46:35.220Z</time>
      </trkpt>
      <trkpt lat="45.41048" lon="4.6253">
        <ele>966</ele>
        <time>2023-07-28T10:46:37.107Z</time>
      </trkpt>
      <trkpt lat="45.41044" lon="4.62525">
        <ele>965.8</ele>
        <time>2023-07-28T10:46:39.002Z</time>
      </trkpt>
      <trkpt lat="45.41042" lon="4.62522">
        <ele>965.8</ele>
        <time>2023-07-28T10:46:40.900Z</time>
      </trkpt>
      <trkpt lat="45.41034" lon="4.62517">
        <ele>965.4</ele>
        <time>2023-07-28T10:46:42.808Z</time>
      </trkpt>
      <trkpt lat="45.41031" lon="4.62516">
        <ele>965.4</ele>
        <time>2023-07-28T10:46:44.719Z</time>
      </trkpt>
      <trkpt lat="45.41029" lon="4.62514">
        <ele>965.2</ele>
        <time>2023-07-28T10:46:46.633Z</time>
      </trkpt>
      <trkpt lat="45.41025" lon="4.62513">
        <ele>965.2</ele>
        <time>2023-07-28T10:46:48.553Z</time>
      </trkpt>
      <trkpt lat="45.41021" lon="4.62511">
        <ele>965.2</ele>
        <time>2023-07-28T10:46:50.477Z</time>
      </trkpt>
      <trkpt lat="45.41019" lon="4.62509">
        <ele>965</ele>
        <time>2023-07-28T10:46:52.404Z</time>
      </trkpt>
      <trkpt lat="45.41017" lon="4.62508">
        <ele>965</ele>
        <time>2023-07-28T10:46:54.333Z</time>
      </trkpt>
      <trkpt lat="45.41014" lon="4.62503">
        <ele>964.8</ele>
        <time>2023-07-28T10:46:56.268Z</time>
      </trkpt>
      <trkpt lat="45.41011" lon="4.62501">
        <ele>964.8</ele>
        <time>2023-07-28T10:46:58.207Z</time>
      </trkpt>
      <trkpt lat="45.41005" lon="4.62495">
        <ele>964.4</ele>
        <time>2023-07-28T10:47:00.155Z</time>
      </trkpt>
      <trkpt lat="45.40994" lon="4.6248">
        <ele>963.8</ele>
        <time>2023-07-28T10:47:02.120Z</time>
      </trkpt>
      <trkpt lat="45.4099" lon="4.62477">
        <ele>963.6</ele>
        <time>2023-07-28T10:47:04.091Z</time>
      </trkpt>
      <trkpt lat="45.40972" lon="4.62468">
        <ele>963</ele>
        <time>2023-07-28T10:47:06.085Z</time>
      </trkpt>
      <trkpt lat="45.4096" lon="4.62467">
        <ele>962.8</ele>
        <time>2023-07-28T10:47:08.093Z</time>
      </trkpt>
      <trkpt lat="45.40959" lon="4.62465">
        <ele>962.6</ele>
        <time>2023-07-28T10:47:10.103Z</time>
      </trkpt>
      <trkpt lat="45.40955" lon="4.62461">
        <ele>962</ele>
        <time>2023-07-28T10:47:12.119Z</time>
      </trkpt>
      <trkpt lat="45.40951" lon="4.62456">
        <ele>962</ele>
        <time>2023-07-28T10:47:14.141Z</time>
      </trkpt>
      <trkpt lat="45.40945" lon="4.62454">
        <ele>962.2</ele>
        <time>2023-07-28T10:47:16.169Z</time>
      </trkpt>
      <trkpt lat="45.40943" lon="4.62451">
        <ele>962</ele>
        <time>2023-07-28T10:47:18.201Z</time>
      </trkpt>
      <trkpt lat="45.40941" lon="4.62451">
        <ele>961.6</ele>
        <time>2023-07-28T10:47:20.236Z</time>
      </trkpt>
      <trkpt lat="45.4094" lon="4.62451">
        <ele>961.6</ele>
        <time>2023-07-28T10:47:22.272Z</time>
      </trkpt>
      <trkpt lat="45.40934" lon="4.6245">
        <ele>961.6</ele>
        <time>2023-07-28T10:47:24.314Z</time>
      </trkpt>
      <trkpt lat="45.40916" lon="4.62449">
        <ele>960.6</ele>
        <time>2023-07-28T10:47:26.378Z</time>
      </trkpt>
      <trkpt lat="45.40913" lon="4.62449">
        <ele>960.4</ele>
        <time>2023-07-28T10:47:28.445Z</time>
      </trkpt>
      <trkpt lat="45.40904" lon="4.62452">
        <ele>959.6</ele>
        <time>2023-07-28T10:47:30.524Z</time>
      </trkpt>
      <trkpt lat="45.40903" lon="4.62451">
        <ele>959.6</ele>
        <time>2023-07-28T10:47:32.604Z</time>
      </trkpt>
      <trkpt lat="45.409" lon="4.62448">
        <ele>959.6</ele>
        <time>2023-07-28T10:47:34.688Z</time>
      </trkpt>
      <trkpt lat="45.40899" lon="4.62448">
        <ele>959.6</ele>
        <time>2023-07-28T10:47:36.774Z</time>
      </trkpt>
      <trkpt lat="45.40897" lon="4.62447">
        <ele>959.4</ele>
        <time>2023-07-28T10:47:38.862Z</time>
      </trkpt>
      <trkpt lat="45.40887" lon="4.62438">
        <ele>959</ele>
        <time>2023-07-28T10:47:40.964Z</time>
      </trkpt>
      <trkpt lat="45.40886" lon="4.62437">
        <ele>958.8</ele>
        <time>2023-07-28T10:47:43.068Z</time>
      </trkpt>
      <trkpt lat="45.40882" lon="4.62435">
        <ele>958.8</ele>
        <time>2023-07-28T10:47:45.176Z</time>
      </trkpt>
      <trkpt lat="45.40879" lon="4.62433">
        <ele>958.4</ele>
        <time>2023-07-28T10:47:47.288Z</time>
      </trkpt>
      <trkpt lat="45.40873" lon="4.62428">
        <ele>958</ele>
        <time>2023-07-28T10:47:49.408Z</time>
      </trkpt>
      <trkpt lat="45.40856" lon="4.62418">
        <ele>957.6</ele>
        <time>2023-07-28T10:47:51.550Z</time>
      </trkpt>
      <trkpt lat="45.40853" lon="4.62417">
        <ele>957.6</ele>
        <time>2023-07-28T10:47:53.696Z</time>
      </trkpt>
      <trkpt lat="45.4085" lon="4.62416">
        <ele>957.6</ele>
        <time>2023-07-28T10:47:55.845Z</time>
      </trkpt>
      <trkpt lat="45.40849" lon="4.62415">
        <ele>957.4</ele>
        <time>2023-07-28T10:47:57.996Z</time>
      </trkpt>
      <trkpt lat="45.40832" lon="4.62405">
        <ele>956.4</ele>
        <time>2023-07-28T10:48:00.168Z</time>
      </trkpt>
      <trkpt lat="45.40828" lon="4.62402">
        <ele>956.4</ele>
        <time>2023-07-28T10:48:02.346Z</time>
      </trkpt>
      <trkpt lat="45.40817" lon="4.62386">
        <ele>956</ele>
        <time>2023-07-28T10:48:04.542Z</time>
      </trkpt>
      <trkpt lat="45.40815" lon="4.62385">
        <ele>955.8</ele>
        <time>2023-07-28T10:48:06.741Z</time>
      </trkpt>
      <trkpt lat="45.40814" lon="4.62385">
        <ele>955.6</ele>
        <time>2023-07-28T10:48:08.941Z</time>
      </trkpt>
      <trkpt lat="45.40814" lon="4.62383">
        <ele>955.4</ele>
        <time>2023-07-28T10:48:11.142Z</time>
      </trkpt>
      <trkpt lat="45.40813" lon="4.62384">
        <ele>955.4</ele>
        <time>2023-07-28T10:48:13.345Z</time>
      </trkpt>
      <trkpt lat="45.4081" lon="4.62385">
        <ele>955.2</ele>
        <time>2023-07-28T10:48:15.551Z</time>
      </trkpt>
      <trkpt lat="45.40807" lon="4.62388">
        <ele>955</ele>
        <time>2023-07-28T10:48:17.762Z</time>
      </trkpt>
      <trkpt lat="45.40799" lon="4.62384">
        <ele>954</ele>
        <time>2023-07-28T10:48:19.983Z</time>
      </trkpt>
      <trkpt lat="45.40794" lon="4.62379">
        <ele>953</ele>
        <time>2023-07-28T10:48:22.211Z</time>
      </trkpt>
      <trkpt lat="45.40792" lon="4.62377">
        <ele>952.8</ele>
        <time>2023-07-28T10:48:24.442Z</time>
      </trkpt>
      <trkpt lat="45.40788" lon="4.62376">
        <ele>952.4</ele>
        <time>2023-07-28T10:48:26.677Z</time>
      </trkpt>
      <trkpt lat="45.40783" lon="4.62375">
        <ele>952</ele>
        <time>2023-07-28T10:48:28.918Z</time>
      </trkpt>
      <trkpt lat="45.40782" lon="4.62374">
        <ele>951.8</ele>
        <time>2023-07-28T10:48:31.161Z</time>
      </trkpt>
      <trkpt lat="45.40776" lon="4.62372">
        <ele>951.4</ele>
        <time>2023-07-28T10:48:33.411Z</time>
      </trkpt>
      <trkpt lat="45.40774" lon="4.62371">
        <ele>951.2</ele>
        <time>2023-07-28T10:48:35.664Z</time>
      </trkpt>
      <trkpt lat="45.40771" lon="4.6237">
        <ele>951</ele>
        <time>2023-07-28T10:48:37.920Z</time>
      </trkpt>
      <trkpt lat="45.4077" lon="4.6237">
        <ele>950.8</ele>
        <time>2023-07-28T10:48:40.177Z</time>
      </trkpt>
      <trkpt lat="45.40768" lon="4.62367">
        <ele>950.6</ele>
        <time>2023-07-28T10:48:42.438Z</time>
      </trkpt>
      <trkpt lat="45.40766" lon="4.62364">
        <ele>950.2</ele>
        <time>2023-07-28T10:48:44.702Z</time>
      </trkpt>
      <trkpt lat="45.40765" lon="4.62362">
        <ele>949.8</ele>
        <time>2023-07-28T10:48:46.968Z</time>
      </trkpt>
      <trkpt lat="45.40761" lon="4.62359">
        <ele>949.6</ele>
        <time>2023-07-28T10:48:49.240Z</time>
      </trkpt>
      <trkpt lat="45.40759" lon="4.62359">
        <ele>949.4</ele>
        <time>2023-07-28T10:48:51.514Z</time>
      </trkpt>
      <trkpt lat="45.40756" lon="4.62359">
        <ele>949</ele>
        <time>2023-07-28T10:48:53.792Z</time>
      </trkpt>
      <trkpt lat="45.40753" lon="4.6236">
        <ele>948.8</ele>
        <time>2023-07-28T10:48:56.074Z</time>
      </trkpt>
      <trkpt lat="45.40746" lon="4.62362">
        <ele>948.4</ele>
        <time>2023-07-28T10:48:58.364Z</time>
      </trkpt>
      <trkpt lat="45.40744" lon="4.62362">
        <ele>948.2</ele>
        <time>2023-07-28T10:49:00.656Z</time>
      </trkpt>
      <trkpt lat="45.40741" lon="4.62362">
        <ele>947.8</ele>
        <time>2023-07-28T10:49:02.952Z</time>
      </trkpt>
      <trkpt lat="45.4074" lon="4.62362">
        <ele>947.8</ele>
        <time>2023-07-28T10:49:05.249Z</time>
      </trkpt>
      <trkpt lat="45.40738" lon="4.62363">
        <ele>947.6</ele>
        <time>2023-07-28T10:49:07.549Z</time>
      </trkpt>
      <trkpt lat="45.40735" lon="4.62368">
        <ele>947.6</ele>
        <time>2023-07-28T10:49:09.854Z</time>
      </trkpt>
      <trkpt lat="45.40732" lon="4.62371">
        <ele>947.2</ele>
        <time>2023-07-28T10:49:12.163Z</time>
      </trkpt>
      <trkpt lat="45.40731" lon="4.62371">
        <ele>947</ele>
        <time>2023-07-28T10:49:14.473Z</time>
      </trkpt>
      <trkpt lat="45.4073" lon="4.62374">
        <ele>947</ele>
        <time>2023-07-28T10:49:16.785Z</time>
      </trkpt>
      <trkpt lat="45.40729" lon="4.62376">
        <ele>946.8</ele>
        <time>2023-07-28T10:49:19.100Z</time>
      </trkpt>
      <trkpt lat="45.40726" lon="4.62379">
        <ele>946.8</ele>
        <time>2023-07-28T10:49:21.419Z</time>
      </trkpt>
      <trkpt lat="45.40721" lon="4.62383">
        <ele>946.4</ele>
        <time>2023-07-28T10:49:23.745Z</time>
      </trkpt>
      <trkpt lat="45.40717" lon="4.62385">
        <ele>946</ele>
        <time>2023-07-28T10:49:26.076Z</time>
      </trkpt>
      <trkpt lat="45.40713" lon="4.62386">
        <ele>945.8</ele>
        <time>2023-07-28T10:49:28.412Z</time>
      </trkpt>
      <trkpt lat="45.40712" lon="4.62386">
        <ele>945.8</ele>
        <time>2023-07-28T10:49:30.749Z</time>
      </trkpt>
      <trkpt lat="45.40711" lon="4.62388">
        <ele>945.6</ele>
        <time>2023-07-28T10:49:33.088Z</time>
      </trkpt>
      <trkpt lat="45.40709" lon="4.62389">
        <ele>945.4</ele>
        <time>2023-07-28T10:49:35.430Z</time>
      </trkpt>
      <trkpt lat="45.40708" lon="4.6239">
        <ele>945.4</ele>
        <time>2023-07-28T10:49:37.773Z</time>
      </trkpt>
      <trkpt lat="45.40706" lon="4.62392">
        <ele>945</ele>
        <time>2023-07-28T10:49:40.119Z</time>
      </trkpt>
      <trkpt lat="45.40704" lon="4.62392">
        <ele>944.6</ele>
        <time>2023-07-28T10:49:42.467Z</time>
      </trkpt>
      <trkpt lat="45.40703" lon="4.62392">
        <ele>944.6</ele>
        <time>2023-07-28T10:49:44.816Z</time>
      </trkpt>
      <trkpt lat="45.407" lon="4.62393">
        <ele>944.4</ele>
        <time>2023-07-28T10:49:47.168Z</time>
      </trkpt>
      <trkpt lat="45.40696" lon="4.62394">
        <ele>944</ele>
        <time>2023-07-28T10:49:49.525Z</time>
      </trkpt>
      <trkpt lat="45.40694" lon="4.62395">
        <ele>943.8</ele>
        <time>2023-07-28T10:49:51.885Z</time>
      </trkpt>
      <trkpt lat="45.40692" lon="4.62395">
        <ele>943.6</ele>
        <time>2023-07-28T10:49:54.248Z</time>
      </trkpt>
      <trkpt lat="45.4069" lon="4.62395">
        <ele>943.6</ele>
        <time>2023-07-28T10:49:56.613Z</time>
      </trkpt>
      <trkpt lat="45.40685" lon="4.62394">
        <ele>943.4</ele>
        <time>2023-07-28T10:49:58.983Z</time>
      </trkpt>
      <trkpt lat="45.40683" lon="4.62394">
        <ele>942.8</ele>
        <time>2023-07-28T10:50:01.356Z</time>
      </trkpt>
      <trkpt lat="45.40681" lon="4.62393">
        <ele>942.6</ele>
        <time>2023-07-28T10:50:03.732Z</time>
      </trkpt>
      <trkpt lat="45.40679" lon="4.62393">
        <ele>942.4</ele>
        <time>2023-07-28T10:50:06.110Z</time>
      </trkpt>
      <trkpt lat="45.40677" lon="4.62393">
        <ele>942.2</ele>
        <time>2023-07-28T10:50:08.490Z</time>
      </trkpt>
      <trkpt lat="45.40674" lon="4.62392">
        <ele>942</ele>
        <time>2023-07-28T10:50:10.874Z</time>
      </trkpt>
      <trkpt lat="45.4067" lon="4.62391">
        <ele>941.4</ele>
        <time>2023-07-28T10:50:13.263Z</time>
      </trkpt>
      <trkpt lat="45.40664" lon="4.62393">
        <ele>941</ele>
        <time>2023-07-28T10:50:15.660Z</time>
      </trkpt>
      <trkpt lat="45.40659" lon="4.62393">
        <ele>940.6</ele>
        <time>2023-07-28T10:50:18.062Z</time>
      </trkpt>
      <trkpt lat="45.40655" lon="4.62392">
        <ele>940.4</ele>
        <time>2023-07-28T10:50:20.468Z</time>
      </trkpt>
      <trkpt lat="45.40652" lon="4.62391">
        <ele>940.2</ele>
        <time>2023-07-28T10:50:22.878Z</time>
      </trkpt>
      <trkpt lat="45.40651" lon="4.62391">
        <ele>939.8</ele>
        <time>2023-07-28T10:50:25.290Z</time>
      </trkpt>
      <trkpt lat="45.40648" lon="4.62391">
        <ele>939.6</ele>
        <time>2023-07-28T10:50:27.705Z</time>
      </trkpt>
      <trkpt lat="45.40645" lon="4.6239">
        <ele>939.6</ele>
        <time>2023-07-28T10:50:30.124Z</time>
      </trkpt>
      <trkpt lat="45.40638" lon="4.62391">
        <ele>939.2</ele>
        <time>2023-07-28T10:50:32.551Z</time>
      </trkpt>
      <trkpt lat="45.40636" lon="4.62389">
        <ele>939.2</ele>
        <time>2023-07-28T10:50:34.981Z</time>
      </trkpt>
      <trkpt lat="45.40632" lon="4.62387">
        <ele>938.8</ele>
        <time>2023-07-28T10:50:37.416Z</time>
      </trkpt>
      <trkpt lat="45.40629" lon="4.62389">
        <ele>938.6</ele>
        <time>2023-07-28T10:50:39.855Z</time>
      </trkpt>
      <trkpt lat="45.40626" lon="4.62392">
        <ele>938.2</ele>
        <time>2023-07-28T10:50:42.299Z</time>
      </trkpt>
      <trkpt lat="45.40624" lon="4.62394">
        <ele>938</ele>
        <time>2023-07-28T10:50:44.745Z</time>
      </trkpt>
      <trkpt lat="45.40624" lon="4.62397">
        <ele>937.6</ele>
        <time>2023-07-28T10:50:47.193Z</time>
      </trkpt>
      <trkpt lat="45.40624" lon="4.62397">
        <ele>937.2</ele>
        <time>2023-07-28T10:50:49.642Z</time>
      </trkpt>
      <trkpt lat="45.40624" lon="4.62398">
        <ele>937.2</ele>
        <time>2023-07-28T10:50:52.092Z</time>
      </trkpt>
      <trkpt lat="45.40623" lon="4.624">
        <ele>937</ele>
        <time>2023-07-28T10:50:54.543Z</time>
      </trkpt>
      <trkpt lat="45.40618" lon="4.62406">
        <ele>936.2</ele>
        <time>2023-07-28T10:50:57.002Z</time>
      </trkpt>
      <trkpt lat="45.40608" lon="4.62412">
        <ele>935.2</ele>
        <time>2023-07-28T10:50:59.473Z</time>
      </trkpt>
      <trkpt lat="45.40606" lon="4.62413">
        <ele>935</ele>
        <time>2023-07-28T10:51:01.947Z</time>
      </trkpt>
      <trkpt lat="45.40605" lon="4.62414">
        <ele>935</ele>
        <time>2023-07-28T10:51:04.423Z</time>
      </trkpt>
      <trkpt lat="45.40602" lon="4.62414">
        <ele>934.8</ele>
        <time>2023-07-28T10:51:06.902Z</time>
      </trkpt>
      <trkpt lat="45.40599" lon="4.62415">
        <ele>934.6</ele>
        <time>2023-07-28T10:51:09.385Z</time>
      </trkpt>
      <trkpt lat="45.40597" lon="4.62417">
        <ele>934.4</ele>
        <time>2023-07-28T10:51:11.871Z</time>
      </trkpt>
      <trkpt lat="45.40588" lon="4.62423">
        <ele>934</ele>
        <time>2023-07-28T10:51:14.369Z</time>
      </trkpt>
      <trkpt lat="45.40587" lon="4.62424">
        <ele>934</ele>
        <time>2023-07-28T10:51:16.869Z</time>
      </trkpt>
      <trkpt lat="45.40583" lon="4.62421">
        <ele>933.8</ele>
        <time>2023-07-28T10:51:19.374Z</time>
      </trkpt>
      <trkpt lat="45.4058" lon="4.62418">
        <ele>933.6</ele>
        <time>2023-07-28T10:51:21.883Z</time>
      </trkpt>
      <trkpt lat="45.4058" lon="4.62419">
        <ele>933.6</ele>
        <time>2023-07-28T10:51:24.394Z</time>
      </trkpt>
      <trkpt lat="45.40579" lon="4.6242">
        <ele>933.4</ele>
        <time>2023-07-28T10:51:26.905Z</time>
      </trkpt>
      <trkpt lat="45.40578" lon="4.62423">
        <ele>933.4</ele>
        <time>2023-07-28T10:51:29.419Z</time>
      </trkpt>
      <trkpt lat="45.40574" lon="4.62426">
        <ele>933</ele>
        <time>2023-07-28T10:51:31.938Z</time>
      </trkpt>
      <trkpt lat="45.40574" lon="4.62427">
        <ele>933</ele>
        <time>2023-07-28T10:51:34.458Z</time>
      </trkpt>
      <trkpt lat="45.40574" lon="4.62428">
        <ele>932.8</ele>
        <time>2023-07-28T10:51:36.979Z</time>
      </trkpt>
      <trkpt lat="45.40572" lon="4.62431">
        <ele>932.6</ele>
        <time>2023-07-28T10:51:39.503Z</time>
      </trkpt>
      <trkpt lat="45.40568" lon="4.62431">
        <ele>932.2</ele>
        <time>2023-07-28T10:51:42.032Z</time>
      </trkpt>
      <trkpt lat="45.40568" lon="4.62432">
        <ele>932</ele>
        <time>2023-07-28T10:51:44.562Z</time>
      </trkpt>
      <trkpt lat="45.40568" lon="4.62433">
        <ele>932</ele>
        <time>2023-07-28T10:51:47.093Z</time>
      </trkpt>
      <trkpt lat="45.4057" lon="4.62438">
        <ele>931.8</ele>
        <time>2023-07-28T10:51:49.628Z</time>
      </trkpt>
      <trkpt lat="45.40588" lon="4.62449">
        <ele>931.2</ele>
        <time>2023-07-28T10:51:52.187Z</time>
      </trkpt>
      <trkpt lat="45.40592" lon="4.62451">
        <ele>930.8</ele>
        <time>2023-07-28T10:51:54.751Z</time>
      </trkpt>
      <trkpt lat="45.40596" lon="4.62454">
        <ele>930.6</ele>
        <time>2023-07-28T10:51:57.321Z</time>
      </trkpt>
      <trkpt lat="45.40604" lon="4.62458">
        <ele>930.4</ele>
        <time>2023-07-28T10:51:59.901Z</time>
      </trkpt>
      <trkpt lat="45.40608" lon="4.62461">
        <ele>930</ele>
        <time>2023-07-28T10:52:02.486Z</time>
      </trkpt>
      <trkpt lat="45.40609" lon="4.62461">
        <ele>929.8</ele>
        <time>2023-07-28T10:52:05.072Z</time>
      </trkpt>
      <trkpt lat="45.40612" lon="4.62463">
        <ele>929.8</ele>
        <time>2023-07-28T10:52:07.662Z</time>
      </trkpt>
      <trkpt lat="45.40614" lon="4.62467">
        <ele>929.6</ele>
        <time>2023-07-28T10:52:10.256Z</time>
      </trkpt>
      <trkpt lat="45.40616" lon="4.62472">
        <ele>929.4</ele>
        <time>2023-07-28T10:52:12.855Z</time>
      </trkpt>
      <trkpt lat="45.40613" lon="4.62481">
        <ele>928.8</ele>
        <time>2023-07-28T10:52:15.462Z</time>
      </trkpt>
      <trkpt lat="45.40612" lon="4.62483">
        <ele>928.8</ele>
        <time>2023-07-28T10:52:18.070Z</time>
      </trkpt>
      <trkpt lat="45.40607" lon="4.62491">
        <ele>928.6</ele>
        <time>2023-07-28T10:52:20.688Z</time>
      </trkpt>
      <trkpt lat="45.406" lon="4.625">
        <ele>928.2</ele>
        <time>2023-07-28T10:52:23.318Z</time>
      </trkpt>
      <trkpt lat="45.40599" lon="4.62509">
        <ele>927.8</ele>
        <time>2023-07-28T10:52:25.955Z</time>
      </trkpt>
      <trkpt lat="45.40599" lon="4.6251">
        <ele>927.8</ele>
        <time>2023-07-28T10:52:28.593Z</time>
      </trkpt>
      <trkpt lat="45.40602" lon="4.6252">
        <ele>927.2</ele>
        <time>2023-07-28T10:52:31.239Z</time>
      </trkpt>
      <trkpt lat="45.40599" lon="4.62525">
        <ele>926.6</ele>
        <time>2023-07-28T10:52:33.890Z</time>
      </trkpt>
      <trkpt lat="45.40598" lon="4.62531">
        <ele>926</ele>
        <time>2023-07-28T10:52:36.547Z</time>
      </trkpt>
      <trkpt lat="45.40602" lon="4.62534">
        <ele>925.6</ele>
        <time>2023-07-28T10:52:39.209Z</time>
      </trkpt>
      <trkpt lat="45.40603" lon="4.62535">
        <ele>925.6</ele>
        <time>2023-07-28T10:52:41.872Z</time>
      </trkpt>
      <trkpt lat="45.40604" lon="4.62536">
        <ele>925.2</ele>
        <time>2023-07-28T10:52:44.537Z</time>
      </trkpt>
      <trkpt lat="45.40606" lon="4.62539">
        <ele>924.8</ele>
        <time>2023-07-28T10:52:47.205Z</time>
      </trkpt>
      <trkpt lat="45.40607" lon="4.62541">
        <ele>924.6</ele>
        <time>2023-07-28T10:52:49.876Z</time>
      </trkpt>
      <trkpt lat="45.40609" lon="4.62544">
        <ele>924.2</ele>
        <time>2023-07-28T10:52:52.550Z</time>
      </trkpt>
      <trkpt lat="45.4061" lon="4.62555">
        <ele>923.8</ele>
        <time>2023-07-28T10:52:55.233Z</time>
      </trkpt>
      <trkpt lat="45.4061" lon="4.62563">
        <ele>923.4</ele>
        <time>2023-07-28T10:52:57.923Z</time>
      </trkpt>
      <trkpt lat="45.40612" lon="4.62582">
        <ele>922.4</ele>
        <time>2023-07-28T10:53:00.629Z</time>
      </trkpt>
      <trkpt lat="45.40612" lon="4.62584">
        <ele>922.4</ele>
        <time>2023-07-28T10:53:03.336Z</time>
      </trkpt>
      <trkpt lat="45.40613" lon="4.62588">
        <ele>922.2</ele>
        <time>2023-07-28T10:53:06.046Z</time>
      </trkpt>
      <trkpt lat="45.40617" lon="4.62598">
        <ele>921.6</ele>
        <time>2023-07-28T10:53:08.766Z</time>
      </trkpt>
      <trkpt lat="45.40618" lon="4.62602">
        <ele>921.2</ele>
        <time>2023-07-28T10:53:11.489Z</time>
      </trkpt>
      <trkpt lat="45.40621" lon="4.62611">
        <ele>920.6</ele>
        <time>2023-07-28T10:53:14.221Z</time>
      </trkpt>
      <trkpt lat="45.40622" lon="4.62614">
        <ele>920.4</ele>
        <time>2023-07-28T10:53:16.956Z</time>
      </trkpt>
      <trkpt lat="45.40623" lon="4.62617">
        <ele>920.2</ele>
        <time>2023-07-28T10:53:19.694Z</time>
      </trkpt>
      <trkpt lat="45.40622" lon="4.62623">
        <ele>920</ele>
        <time>2023-07-28T10:53:22.437Z</time>
      </trkpt>
      <trkpt lat="45.4062" lon="4.62629">
        <ele>919.6</ele>
        <time>2023-07-28T10:53:25.186Z</time>
      </trkpt>
      <trkpt lat="45.40618" lon="4.62638">
        <ele>919.2</ele>
        <time>2023-07-28T10:53:27.943Z</time>
      </trkpt>
      <trkpt lat="45.40618" lon="4.62642">
        <ele>919.2</ele>
        <time>2023-07-28T10:53:30.703Z</time>
      </trkpt>
      <trkpt lat="45.40622" lon="4.62651">
        <ele>919</ele>
        <time>2023-07-28T10:53:33.472Z</time>
      </trkpt>
      <trkpt lat="45.40622" lon="4.62657">
        <ele>918.2</ele>
        <time>2023-07-28T10:53:36.246Z</time>
      </trkpt>
      <trkpt lat="45.40622" lon="4.62659">
        <ele>918</ele>
        <time>2023-07-28T10:53:39.022Z</time>
      </trkpt>
      <trkpt lat="45.40619" lon="4.62681">
        <ele>917</ele>
        <time>2023-07-28T10:53:41.817Z</time>
      </trkpt>
      <trkpt lat="45.40621" lon="4.62683">
        <ele>916.8</ele>
        <time>2023-07-28T10:53:44.614Z</time>
      </trkpt>
      <trkpt lat="45.40628" lon="4.62697">
        <ele>916.2</ele>
        <time>2023-07-28T10:53:47.426Z</time>
      </trkpt>
      <trkpt lat="45.40628" lon="4.62698">
        <ele>916</ele>
        <time>2023-07-28T10:53:50.238Z</time>
      </trkpt>
      <trkpt lat="45.40627" lon="4.62702">
        <ele>915.6</ele>
        <time>2023-07-28T10:53:53.054Z</time>
      </trkpt>
      <trkpt lat="45.40622" lon="4.6271">
        <ele>915</ele>
        <time>2023-07-28T10:53:55.878Z</time>
      </trkpt>
      <trkpt lat="45.40619" lon="4.62722">
        <ele>914.2</ele>
        <time>2023-07-28T10:53:58.713Z</time>
      </trkpt>
      <trkpt lat="45.40623" lon="4.62731">
        <ele>914</ele>
        <time>2023-07-28T10:54:01.557Z</time>
      </trkpt>
      <trkpt lat="45.40623" lon="4.62741">
        <ele>913.2</ele>
        <time>2023-07-28T10:54:04.409Z</time>
      </trkpt>
      <trkpt lat="45.40623" lon="4.62747">
        <ele>913</ele>
        <time>2023-07-28T10:54:07.266Z</time>
      </trkpt>
      <trkpt lat="45.40622" lon="4.62749">
        <ele>912.8</ele>
        <time>2023-07-28T10:54:10.125Z</time>
      </trkpt>
      <trkpt lat="45.4062" lon="4.62755">
        <ele>912.8</ele>
        <time>2023-07-28T10:54:12.990Z</time>
      </trkpt>
      <trkpt lat="45.40621" lon="4.62758">
        <ele>912.6</ele>
        <time>2023-07-28T10:54:15.858Z</time>
      </trkpt>
      <trkpt lat="45.40622" lon="4.6276">
        <ele>912.2</ele>
        <time>2023-07-28T10:54:18.728Z</time>
      </trkpt>
      <trkpt lat="45.40622" lon="4.62764">
        <ele>912</ele>
        <time>2023-07-28T10:54:21.601Z</time>
      </trkpt>
      <trkpt lat="45.40623" lon="4.62767">
        <ele>911.8</ele>
        <time>2023-07-28T10:54:24.477Z</time>
      </trkpt>
      <trkpt lat="45.40627" lon="4.62776">
        <ele>911.2</ele>
        <time>2023-07-28T10:54:27.362Z</time>
      </trkpt>
      <trkpt lat="45.40628" lon="4.62787">
        <ele>910.8</ele>
        <time>2023-07-28T10:54:30.256Z</time>
      </trkpt>
      <trkpt lat="45.40627" lon="4.6279">
        <ele>910.8</ele>
        <time>2023-07-28T10:54:33.152Z</time>
      </trkpt>
      <trkpt lat="45.40626" lon="4.62813">
        <ele>909.6</ele>
        <time>2023-07-28T10:54:36.068Z</time>
      </trkpt>
      <trkpt lat="45.40623" lon="4.62821">
        <ele>908.6</ele>
        <time>2023-07-28T10:54:38.991Z</time>
      </trkpt>
      <trkpt lat="45.40622" lon="4.62822">
        <ele>908.4</ele>
        <time>2023-07-28T10:54:41.916Z</time>
      </trkpt>
      <trkpt lat="45.40622" lon="4.62824">
        <ele>908.2</ele>
        <time>2023-07-28T10:54:44.842Z</time>
      </trkpt>
      <trkpt lat="45.40623" lon="4.62829">
        <ele>907.4</ele>
        <time>2023-07-28T10:54:47.773Z</time>
      </trkpt>
      <trkpt lat="45.40622" lon="4.62833">
        <ele>907.2</ele>
        <time>2023-07-28T10:54:50.707Z</time>
      </trkpt>
      <trkpt lat="45.40622" lon="4.62835">
        <ele>907.2</ele>
        <time>2023-07-28T10:54:53.643Z</time>
      </trkpt>
      <trkpt lat="45.40621" lon="4.6284">
        <ele>907</ele>
        <time>2023-07-28T10:54:56.583Z</time>
      </trkpt>
      <trkpt lat="45.40622" lon="4.62844">
        <ele>907</ele>
        <time>2023-07-28T10:54:59.527Z</time>
      </trkpt>
      <trkpt lat="45.40622" lon="4.62847">
        <ele>906.8</ele>
        <time>2023-07-28T10:55:02.473Z</time>
      </trkpt>
      <trkpt lat="45.40625" lon="4.62853">
        <ele>906.4</ele>
        <time>2023-07-28T10:55:05.426Z</time>
      </trkpt>
      <trkpt lat="45.40626" lon="4.62855">
        <ele>906.4</ele>
        <time>2023-07-28T10:55:08.380Z</time>
      </trkpt>
      <trkpt lat="45.40626" lon="4.62856">
        <ele>906.4</ele>
        <time>2023-07-28T10:55:11.335Z</time>
      </trkpt>
      <trkpt lat="45.40627" lon="4.62859">
        <ele>906.2</ele>
        <time>2023-07-28T10:55:14.293Z</time>
      </trkpt>
      <trkpt lat="45.40627" lon="4.62861">
        <ele>906</ele>
        <time>2023-07-28T10:55:17.253Z</time>
      </trkpt>
      <trkpt lat="45.40625" lon="4.62865">
        <ele>905.8</ele>
        <time>2023-07-28T10:55:20.217Z</time>
      </trkpt>
      <trkpt lat="45.40623" lon="4.62876">
        <ele>905.6</ele>
        <time>2023-07-28T10:55:23.190Z</time>
      </trkpt>
      <trkpt lat="45.4062" lon="4.62891">
        <ele>905.4</ele>
        <time>2023-07-28T10:55:26.176Z</time>
      </trkpt>
      <trkpt lat="45.40622" lon="4.62899">
        <ele>904.4</ele>
        <time>2023-07-28T10:55:29.169Z</time>
      </trkpt>
      <trkpt lat="45.40624" lon="4.62906">
        <ele>903.6</ele>
        <time>2023-07-28T10:55:32.168Z</time>
      </trkpt>
      <trkpt lat="45.40625" lon="4.62908">
        <ele>903.4</ele>
        <time>2023-07-28T10:55:35.170Z</time>
      </trkpt>
      <trkpt lat="45.40625" lon="4.62909">
        <ele>903.4</ele>
        <time>2023-07-28T10:55:38.172Z</time>
      </trkpt>
      <trkpt lat="45.40627" lon="4.62911">
        <ele>903</ele>
        <time>2023-07-28T10:55:41.177Z</time>
      </trkpt>
      <trkpt lat="45.40627" lon="4.62917">
        <ele>902.6</ele>
        <time>2023-07-28T10:55:44.187Z</time>
      </trkpt>
      <trkpt lat="45.40627" lon="4.6292">
        <ele>902.4</ele>
        <time>2023-07-28T10:55:47.199Z</time>
      </trkpt>
      <trkpt lat="45.40626" lon="4.62924">
        <ele>902.2</ele>
        <time>2023-07-28T10:55:50.215Z</time>
      </trkpt>
      <trkpt lat="45.40627" lon="4.62925">
        <ele>902</ele>
        <time>2023-07-28T10:55:53.232Z</time>
      </trkpt>
      <trkpt lat="45.40627" lon="4.62928">
        <ele>901.8</ele>
        <time>2023-07-28T10:55:56.251Z</time>
      </trkpt>
      <trkpt lat="45.40627" lon="4.62937">
        <ele>901.6</ele>
        <time>2023-07-28T10:55:59.278Z</time>
      </trkpt>
      <trkpt lat="45.40628" lon="4.62939">
        <ele>901.4</ele>
        <time>2023-07-28T10:56:02.307Z</time>
      </trkpt>
      <trkpt lat="45.40629" lon="4.62941">
        <ele>901.2</ele>
        <time>2023-07-28T10:56:05.338Z</time>
      </trkpt>
      <trkpt lat="45.40632" lon="4.62944">
        <ele>901</ele>
        <time>2023-07-28T10:56:08.374Z</time>
      </trkpt>
      <trkpt lat="45.40633" lon="4.6295">
        <ele>900.6</ele>
        <time>2023-07-28T10:56:11.415Z</time>
      </trkpt>
      <trkpt lat="45.40642" lon="4.62961">
        <ele>900.2</ele>
        <time>2023-07-28T10:56:14.469Z</time>
      </trkpt>
      <trkpt lat="45.40634" lon="4.62984">
        <ele>899.4</ele>
        <time>2023-07-28T10:56:17.544Z</time>
      </trkpt>
      <trkpt lat="45.40633" lon="4.62988">
        <ele>899.2</ele>
        <time>2023-07-28T10:56:20.623Z</time>
      </trkpt>
      <trkpt lat="45.4063" lon="4.62994">
        <ele>898.8</ele>
        <time>2023-07-28T10:56:23.708Z</time>
      </trkpt>
      <trkpt lat="45.40629" lon="4.63004">
        <ele>898.2</ele>
        <time>2023-07-28T10:56:26.801Z</time>
      </trkpt>
      <trkpt lat="45.40629" lon="4.63009">
        <ele>898.2</ele>
        <time>2023-07-28T10:56:29.898Z</time>
      </trkpt>
      <trkpt lat="45.40627" lon="4.6301">
        <ele>898.2</ele>
        <time>2023-07-28T10:56:32.997Z</time>
      </trkpt>
      <trkpt lat="45.40625" lon="4.63012">
        <ele>898.6</ele>
        <time>2023-07-28T10:56:36.099Z</time>
      </trkpt>
      <trkpt lat="45.40628" lon="4.63011">
        <ele>899</ele>
        <time>2023-07-28T10:56:39.205Z</time>
      </trkpt>
      <trkpt lat="45.40626" lon="4.6301">
        <ele>899</ele>
        <time>2023-07-28T10:56:42.313Z</time>
      </trkpt>
      <trkpt lat="45.40626" lon="4.6301">
        <ele>899.2</ele>
        <time>2023-07-28T10:56:45.422Z</time>
      </trkpt>
      <trkpt lat="45.40622" lon="4.6301">
        <ele>900</ele>
        <time>2023-07-28T10:56:48.535Z</time>
      </trkpt>
      <trkpt lat="45.40621" lon="4.63009">
        <ele>900.4</ele>
        <time>2023-07-28T10:56:51.650Z</time>
      </trkpt>
      <trkpt lat="45.4062" lon="4.63008">
        <ele>900.6</ele>
        <time>2023-07-28T10:56:54.766Z</time>
      </trkpt>
      <trkpt lat="45.40616" lon="4.63008">
        <ele>901.4</ele>
        <time>2023-07-28T10:56:57.886Z</time>
      </trkpt>
      <trkpt lat="45.40615" lon="4.63008">
        <ele>901.6</ele>
        <time>2023-07-28T10:57:01.007Z</time>
      </trkpt>
      <trkpt lat="45.40615" lon="4.63009">
        <ele>902.2</ele>
        <time>2023-07-28T10:57:04.130Z</time>
      </trkpt>
      <trkpt lat="45.40614" lon="4.63011">
        <ele>902.4</ele>
        <time>2023-07-28T10:57:07.255Z</time>
      </trkpt>
      <trkpt lat="45.40614" lon="4.63012">
        <ele>902.6</ele>
        <time>2023-07-28T10:57:10.380Z</time>
      </trkpt>
      <trkpt lat="45.40615" lon="4.63015">
        <ele>903.4</ele>
        <time>2023-07-28T10:57:13.508Z</time>
      </trkpt>
      <trkpt lat="45.40615" lon="4.63016">
        <ele>903.6</ele>
        <time>2023-07-28T10:57:16.637Z</time>
      </trkpt>
      <trkpt lat="45.40616" lon="4.63018">
        <ele>903.8</ele>
        <time>2023-07-28T10:57:19.768Z</time>
      </trkpt>
      <trkpt lat="45.40621" lon="4.63022">
        <ele>904.2</ele>
        <time>2023-07-28T10:57:22.905Z</time>
      </trkpt>
      <trkpt lat="45.40623" lon="4.63024">
        <ele>904.6</ele>
        <time>2023-07-28T10:57:26.046Z</time>
      </trkpt>
      <trkpt lat="45.40623" lon="4.63025">
        <ele>904.6</ele>
        <time>2023-07-28T10:57:29.188Z</time>
      </trkpt>
      <trkpt lat="45.40624" lon="4.63031">
        <ele>904.8</ele>
        <time>2023-07-28T10:57:32.335Z</time>
      </trkpt>
      <trkpt lat="45.40628" lon="4.6304">
        <ele>905.4</ele>
        <time>2023-07-28T10:57:35.490Z</time>
      </trkpt>
      <trkpt lat="45.40628" lon="4.63044">
        <ele>905.4</ele>
        <time>2023-07-28T10:57:38.648Z</time>
      </trkpt>
      <trkpt lat="45.40629" lon="4.63046">
        <ele>905.4</ele>
        <time>2023-07-28T10:57:41.809Z</time>
      </trkpt>
      <trkpt lat="45.4063" lon="4.63049">
        <ele>905.6</ele>
        <time>2023-07-28T10:57:44.972Z</time>
      </trkpt>
      <trkpt lat="45.40629" lon="4.6305">
        <ele>905.8</ele>
        <time>2023-07-28T10:57:48.137Z</time>
      </trkpt>
      <trkpt lat="45.4063" lon="4.63054">
        <ele>906</ele>
        <time>2023-07-28T10:57:51.305Z</time>
      </trkpt>
      <trkpt lat="45.40627" lon="4.63058">
        <ele>906.2</ele>
        <time>2023-07-28T10:57:54.477Z</time>
      </trkpt>
      <trkpt lat="45.40625" lon="4.63062">
        <ele>906.4</ele>
        <time>2023-07-28T10:57:57.654Z</time>
      </trkpt>
      <trkpt lat="45.40622" lon="4.63064">
        <ele>906.8</ele>
        <time>2023-07-28T10:58:00.834Z</time>
      </trkpt>
      <trkpt lat="45.40622" lon="4.63065">
        <ele>907.2</ele>
        <time>2023-07-28T10:58:04.016Z</time>
      </trkpt>
      <trkpt lat="45.40616" lon="4.63069">
        <ele>908</ele>
        <time>2023-07-28T10:58:07.205Z</time>
      </trkpt>
      <trkpt lat="45.40614" lon="4.63069">
        <ele>908</ele>
        <time>2023-07-28T10:58:10.396Z</time>
      </trkpt>
      <trkpt lat="45.40612" lon="4.63069">
        <ele>908.2</ele>
        <time>2023-07-28T10:58:13.590Z</time>
      </trkpt>
      <trkpt lat="45.4061" lon="4.63068">
        <ele>908.8</ele>
        <time>2023-07-28T10:58:16.787Z</time>
      </trkpt>
      <trkpt lat="45.40606" lon="4.63071">
        <ele>908.8</ele>
        <time>2023-07-28T10:58:19.988Z</time>
      </trkpt>
      <trkpt lat="45.40606" lon="4.6307">
        <ele>908.8</ele>
        <time>2023-07-28T10:58:23.190Z</time>
      </trkpt>
      <trkpt lat="45.40603" lon="4.63072">
        <ele>909</ele>
        <time>2023-07-28T10:58:26.396Z</time>
      </trkpt>
      <trkpt lat="45.40602" lon="4.63073">
        <ele>909.2</ele>
        <time>2023-07-28T10:58:29.603Z</time>
      </trkpt>
      <trkpt lat="45.40598" lon="4.63077">
        <ele>909.6</ele>
        <time>2023-07-28T10:58:32.817Z</time>
      </trkpt>
      <trkpt lat="45.40596" lon="4.63078">
        <ele>909.8</ele>
        <time>2023-07-28T10:58:36.032Z</time>
      </trkpt>
      <trkpt lat="45.40594" lon="4.6308">
        <ele>910</ele>
        <time>2023-07-28T10:58:39.250Z</time>
      </trkpt>
      <trkpt lat="45.40587" lon="4.63087">
        <ele>911.2</ele>
        <time>2023-07-28T10:58:42.479Z</time>
      </trkpt>
      <trkpt lat="45.40584" lon="4.63088">
        <ele>911.6</ele>
        <time>2023-07-28T10:58:45.711Z</time>
      </trkpt>
      <trkpt lat="45.40583" lon="4.63089">
        <ele>912</ele>
        <time>2023-07-28T10:58:48.945Z</time>
      </trkpt>
      <trkpt lat="45.40582" lon="4.6309">
        <ele>912.2</ele>
        <time>2023-07-28T10:58:52.181Z</time>
      </trkpt>
      <trkpt lat="45.40581" lon="4.63091">
        <ele>912.2</ele>
        <time>2023-07-28T10:58:55.418Z</time>
      </trkpt>
      <trkpt lat="45.4058" lon="4.63091">
        <ele>912.6</ele>
        <time>2023-07-28T10:58:58.656Z</time>
      </trkpt>
      <trkpt lat="45.40579" lon="4.6309">
        <ele>913.2</ele>
        <time>2023-07-28T10:59:01.896Z</time>
      </trkpt>
      <trkpt lat="45.40578" lon="4.6309">
        <ele>913.2</ele>
        <time>2023-07-28T10:59:05.136Z</time>
      </trkpt>
      <trkpt lat="45.40575" lon="4.63088">
        <ele>913.6</ele>
        <time>2023-07-28T10:59:08.380Z</time>
      </trkpt>
      <trkpt lat="45.40565" lon="4.63086">
        <ele>914.4</ele>
        <time>2023-07-28T10:59:11.636Z</time>
      </trkpt>
      <trkpt lat="45.40561" lon="4.63082">
        <ele>915.2</ele>
        <time>2023-07-28T10:59:14.899Z</time>
      </trkpt>
      <trkpt lat="45.4056" lon="4.63079">
        <ele>915.4</ele>
        <time>2023-07-28T10:59:18.164Z</time>
      </trkpt>
      <trkpt lat="45.40555" lon="4.63077">
        <ele>916.4</ele>
        <time>2023-07-28T10:59:21.435Z</time>
      </trkpt>
      <trkpt lat="45.40552" lon="4.63074">
        <ele>916.8</ele>
        <time>2023-07-28T10:59:24.711Z</time>
      </trkpt>
      <trkpt lat="45.40547" lon="4.63075">
        <ele>917.6</ele>
        <time>2023-07-28T10:59:27.992Z</time>
      </trkpt>
      <trkpt lat="45.40543" lon="4.63072">
        <ele>918.4</ele>
        <time>2023-07-28T10:59:31.278Z</time>
      </trkpt>
      <trkpt lat="45.40542" lon="4.63071">
        <ele>918.6</ele>
        <time>2023-07-28T10:59:34.566Z</time>
      </trkpt>
      <trkpt lat="45.4054" lon="4.6307">
        <ele>919.2</ele>
        <time>2023-07-28T10:59:37.857Z</time>
      </trkpt>
      <trkpt lat="45.40539" lon="4.63067">
        <ele>919.6</ele>
        <time>2023-07-28T10:59:41.151Z</time>
      </trkpt>
      <trkpt lat="45.40537" lon="4.63066">
        <ele>920.2</ele>
        <time>2023-07-28T10:59:44.447Z</time>
      </trkpt>
      <trkpt lat="45.40534" lon="4.63063">
        <ele>920.6</ele>
        <time>2023-07-28T10:59:47.747Z</time>
      </trkpt>
      <trkpt lat="45.40534" lon="4.63063">
        <ele>920.8</ele>
        <time>2023-07-28T10:59:51.048Z</time>
      </trkpt>
      <trkpt lat="45.40532" lon="4.6306">
        <ele>921.2</ele>
        <time>2023-07-28T10:59:54.352Z</time>
      </trkpt>
      <trkpt lat="45.40529" lon="4.63055">
        <ele>921.8</ele>
        <time>2023-07-28T10:59:57.661Z</time>
      </trkpt>
      <trkpt lat="45.40529" lon="4.63053">
        <ele>922.2</ele>
        <time>2023-07-28T11:00:00.972Z</time>
      </trkpt>
      <trkpt lat="45.40528" lon="4.63052">
        <ele>922.6</ele>
        <time>2023-07-28T11:00:04.284Z</time>
      </trkpt>
      <trkpt lat="45.40527" lon="4.6305">
        <ele>922.8</ele>
        <time>2023-07-28T11:00:07.598Z</time>
      </trkpt>
      <trkpt lat="45.40526" lon="4.63048">
        <ele>923</ele>
        <time>2023-07-28T11:00:10.915Z</time>
      </trkpt>
      <trkpt lat="45.4051" lon="4.63051">
        <ele>923.6</ele>
        <time>2023-07-28T11:00:14.250Z</time>
      </trkpt>
      <trkpt lat="45.40508" lon="4.6305">
        <ele>923.8</ele>
        <time>2023-07-28T11:00:17.588Z</time>
      </trkpt>
      <trkpt lat="45.40501" lon="4.63055">
        <ele>923.2</ele>
        <time>2023-07-28T11:00:20.935Z</time>
      </trkpt>
      <trkpt lat="45.40495" lon="4.63056">
        <ele>922.8</ele>
        <time>2023-07-28T11:00:24.289Z</time>
      </trkpt>
      <trkpt lat="45.40493" lon="4.63057">
        <ele>922.6</ele>
        <time>2023-07-28T11:00:27.646Z</time>
      </trkpt>
      <trkpt lat="45.40482" lon="4.6306">
        <ele>922</ele>
        <time>2023-07-28T11:00:31.016Z</time>
      </trkpt>
      <trkpt lat="45.40479" lon="4.63062">
        <ele>921.6</ele>
        <time>2023-07-28T11:00:34.390Z</time>
      </trkpt>
      <trkpt lat="45.40477" lon="4.63062">
        <ele>921.2</ele>
        <time>2023-07-28T11:00:37.766Z</time>
      </trkpt>
      <trkpt lat="45.40472" lon="4.6306">
        <ele>920.8</ele>
        <time>2023-07-28T11:00:41.148Z</time>
      </trkpt>
      <trkpt lat="45.40468" lon="4.6306">
        <ele>920.6</ele>
        <time>2023-07-28T11:00:44.535Z</time>
      </trkpt>
      <trkpt lat="45.40466" lon="4.6306">
        <ele>920.2</ele>
        <time>2023-07-28T11:00:47.924Z</time>
      </trkpt>
      <trkpt lat="45.40463" lon="4.63058">
        <ele>919.6</ele>
        <time>2023-07-28T11:00:51.317Z</time>
      </trkpt>
      <trkpt lat="45.40461" lon="4.63057">
        <ele>919.4</ele>
        <time>2023-07-28T11:00:54.712Z</time>
      </trkpt>
      <trkpt lat="45.40457" lon="4.63054">
        <ele>919.4</ele>
        <time>2023-07-28T11:00:58.113Z</time>
      </trkpt>
      <trkpt lat="45.40452" lon="4.6305">
        <ele>919.4</ele>
        <time>2023-07-28T11:01:01.521Z</time>
      </trkpt>
      <trkpt lat="45.40438" lon="4.63042">
        <ele>918.6</ele>
        <time>2023-07-28T11:01:04.946Z</time>
      </trkpt>
      <trkpt lat="45.40435" lon="4.6304">
        <ele>918.4</ele>
        <time>2023-07-28T11:01:08.375Z</time>
      </trkpt>
      <trkpt lat="45.40429" lon="4.63039">
        <ele>918</ele>
        <time>2023-07-28T11:01:11.812Z</time>
      </trkpt>
      <trkpt lat="45.40425" lon="4.63038">
        <ele>918.2</ele>
        <time>2023-07-28T11:01:15.253Z</time>
      </trkpt>
      <trkpt lat="45.40423" lon="4.63037">
        <ele>918</ele>
        <time>2023-07-28T11:01:18.697Z</time>
      </trkpt>
      <trkpt lat="45.40418" lon="4.63034">
        <ele>917.8</ele>
        <time>2023-07-28T11:01:22.147Z</time>
      </trkpt>
      <trkpt lat="45.40411" lon="4.63029">
        <ele>917.6</ele>
        <time>2023-07-28T11:01:25.607Z</time>
      </trkpt>
      <trkpt lat="45.40411" lon="4.63028">
        <ele>917.6</ele>
        <time>2023-07-28T11:01:29.067Z</time>
      </trkpt>
      <trkpt lat="45.40408" lon="4.63022">
        <ele>917.6</ele>
        <time>2023-07-28T11:01:32.534Z</time>
      </trkpt>
      <trkpt lat="45.40408" lon="4.6302">
        <ele>917.8</ele>
        <time>2023-07-28T11:01:36.002Z</time>
      </trkpt>
      <trkpt lat="45.40409" lon="4.63019">
        <ele>918</ele>
        <time>2023-07-28T11:01:39.472Z</time>
      </trkpt>
      <trkpt lat="45.40408" lon="4.63016">
        <ele>918</ele>
        <time>2023-07-28T11:01:42.945Z</time>
      </trkpt>
      <trkpt lat="45.40402" lon="4.63007">
        <ele>918.6</ele>
        <time>2023-07-28T11:01:46.428Z</time>
      </trkpt>
      <trkpt lat="45.40402" lon="4.63005">
        <ele>918.6</ele>
        <time>2023-07-28T11:01:49.912Z</time>
      </trkpt>
      <trkpt lat="45.40401" lon="4.63004">
        <ele>918.8</ele>
        <time>2023-07-28T11:01:53.398Z</time>
      </trkpt>
      <trkpt lat="45.40395" lon="4.62998">
        <ele>919</ele>
        <time>2023-07-28T11:01:56.893Z</time>
      </trkpt>
      <trkpt lat="45.40393" lon="4.62996">
        <ele>919</ele>
        <time>2023-07-28T11:02:00.390Z</time>
      </trkpt>
      <trkpt lat="45.40392" lon="4.62994">
        <ele>919.2</ele>
        <time>2023-07-28T11:02:03.889Z</time>
      </trkpt>
      <trkpt lat="45.40391" lon="4.62991">
        <ele>919.2</ele>
        <time>2023-07-28T11:02:07.391Z</time>
      </trkpt>
      <trkpt lat="45.40387" lon="4.62986">
        <ele>919.6</ele>
        <time>2023-07-28T11:02:10.900Z</time>
      </trkpt>
      <trkpt lat="45.40381" lon="4.62983">
        <ele>920.2</ele>
        <time>2023-07-28T11:02:14.416Z</time>
      </trkpt>
      <trkpt lat="45.40374" lon="4.62977">
        <ele>920.2</ele>
        <time>2023-07-28T11:02:17.942Z</time>
      </trkpt>
      <trkpt lat="45.40372" lon="4.62973">
        <ele>920.4</ele>
        <time>2023-07-28T11:02:21.472Z</time>
      </trkpt>
      <trkpt lat="45.4037" lon="4.6297">
        <ele>920.6</ele>
        <time>2023-07-28T11:02:25.005Z</time>
      </trkpt>
      <trkpt lat="45.4037" lon="4.62969">
        <ele>920.8</ele>
        <time>2023-07-28T11:02:28.539Z</time>
      </trkpt>
      <trkpt lat="45.40369" lon="4.62968">
        <ele>920.8</ele>
        <time>2023-07-28T11:02:32.075Z</time>
      </trkpt>
      <trkpt lat="45.40359" lon="4.62952">
        <ele>921</ele>
        <time>2023-07-28T11:02:35.628Z</time>
      </trkpt>
      <trkpt lat="45.40357" lon="4.62945">
        <ele>921.2</ele>
        <time>2023-07-28T11:02:39.187Z</time>
      </trkpt>
      <trkpt lat="45.40353" lon="4.62936">
        <ele>921.6</ele>
        <time>2023-07-28T11:02:42.756Z</time>
      </trkpt>
      <trkpt lat="45.40352" lon="4.62935">
        <ele>921.8</ele>
        <time>2023-07-28T11:02:46.325Z</time>
      </trkpt>
      <trkpt lat="45.40342" lon="4.62914">
        <ele>922.8</ele>
        <time>2023-07-28T11:02:49.916Z</time>
      </trkpt>
      <trkpt lat="45.4034" lon="4.62914">
        <ele>922.8</ele>
        <time>2023-07-28T11:02:53.509Z</time>
      </trkpt>
      <trkpt lat="45.40338" lon="4.62912">
        <ele>922.8</ele>
        <time>2023-07-28T11:02:57.105Z</time>
      </trkpt>
      <trkpt lat="45.40336" lon="4.6291">
        <ele>922.8</ele>
        <time>2023-07-28T11:03:00.704Z</time>
      </trkpt>
      <trkpt lat="45.40333" lon="4.62906">
        <ele>922.8</ele>
        <time>2023-07-28T11:03:04.308Z</time>
      </trkpt>
      <trkpt lat="45.40327" lon="4.62894">
        <ele>923.8</ele>
        <time>2023-07-28T11:03:07.924Z</time>
      </trkpt>
      <trkpt lat="45.40324" lon="4.62893">
        <ele>924</ele>
        <time>2023-07-28T11:03:11.544Z</time>
      </trkpt>
      <trkpt lat="45.4032" lon="4.62891">
        <ele>924</ele>
        <time>2023-07-28T11:03:15.169Z</time>
      </trkpt>
      <trkpt lat="45.40316" lon="4.62888">
        <ele>924.2</ele>
        <time>2023-07-28T11:03:18.799Z</time>
      </trkpt>
      <trkpt lat="45.40314" lon="4.62887">
        <ele>924.4</ele>
        <time>2023-07-28T11:03:22.432Z</time>
      </trkpt>
      <trkpt lat="45.40309" lon="4.62882">
        <ele>924.6</ele>
        <time>2023-07-28T11:03:26.072Z</time>
      </trkpt>
      <trkpt lat="45.40309" lon="4.6288">
        <ele>924.8</ele>
        <time>2023-07-28T11:03:29.714Z</time>
      </trkpt>
      <trkpt lat="45.40307" lon="4.6288">
        <ele>925</ele>
        <time>2023-07-28T11:03:33.358Z</time>
      </trkpt>
      <trkpt lat="45.40304" lon="4.62875">
        <ele>925.6</ele>
        <time>2023-07-28T11:03:37.007Z</time>
      </trkpt>
      <trkpt lat="45.40303" lon="4.62873">
        <ele>925.8</ele>
        <time>2023-07-28T11:03:40.658Z</time>
      </trkpt>
      <trkpt lat="45.40302" lon="4.62872">
        <ele>925.8</ele>
        <time>2023-07-28T11:03:44.311Z</time>
      </trkpt>
      <trkpt lat="45.40299" lon="4.62871">
        <ele>926.2</ele>
        <time>2023-07-28T11:03:47.968Z</time>
      </trkpt>
      <trkpt lat="45.40296" lon="4.62871">
        <ele>926.4</ele>
        <time>2023-07-28T11:03:51.628Z</time>
      </trkpt>
      <trkpt lat="45.40294" lon="4.62869">
        <ele>926.6</ele>
        <time>2023-07-28T11:03:55.291Z</time>
      </trkpt>
      <trkpt lat="45.40293" lon="4.62868">
        <ele>926.6</ele>
        <time>2023-07-28T11:03:58.955Z</time>
      </trkpt>
      <trkpt lat="45.40292" lon="4.62867">
        <ele>926.6</ele>
        <time>2023-07-28T11:04:02.621Z</time>
      </trkpt>
      <trkpt lat="45.40286" lon="4.62863">
        <ele>927</ele>
        <time>2023-07-28T11:04:06.295Z</time>
      </trkpt>
      <trkpt lat="45.40281" lon="4.62854">
        <ele>927.8</ele>
        <time>2023-07-28T11:04:09.979Z</time>
      </trkpt>
      <trkpt lat="45.40279" lon="4.62853">
        <ele>928</ele>
        <time>2023-07-28T11:04:13.664Z</time>
      </trkpt>
      <trkpt lat="45.40275" lon="4.62847">
        <ele>928.8</ele>
        <time>2023-07-28T11:04:17.356Z</time>
      </trkpt>
      <trkpt lat="45.40273" lon="4.62846">
        <ele>929.2</ele>
        <time>2023-07-28T11:04:21.051Z</time>
      </trkpt>
      <trkpt lat="45.40272" lon="4.62845">
        <ele>929.4</ele>
        <time>2023-07-28T11:04:24.748Z</time>
      </trkpt>
      <trkpt lat="45.40268" lon="4.62847">
        <ele>929.8</ele>
        <time>2023-07-28T11:04:28.449Z</time>
      </trkpt>
      <trkpt lat="45.40264" lon="4.62846">
        <ele>930.2</ele>
        <time>2023-07-28T11:04:32.155Z</time>
      </trkpt>
      <trkpt lat="45.40262" lon="4.62838">
        <ele>930.6</ele>
        <time>2023-07-28T11:04:35.868Z</time>
      </trkpt>
      <trkpt lat="45.40261" lon="4.62832">
        <ele>930.8</ele>
        <time>2023-07-28T11:04:39.586Z</time>
      </trkpt>
      <trkpt lat="45.4026" lon="4.62828">
        <ele>931.2</ele>
        <time>2023-07-28T11:04:43.308Z</time>
      </trkpt>
      <trkpt lat="45.4026" lon="4.62827">
        <ele>931.2</ele>
        <time>2023-07-28T11:04:47.031Z</time>
      </trkpt>
      <trkpt lat="45.40259" lon="4.62821">
        <ele>931.2</ele>
        <time>2023-07-28T11:04:50.759Z</time>
      </trkpt>
      <trkpt lat="45.40252" lon="4.6281">
        <ele>931.2</ele>
        <time>2023-07-28T11:04:54.500Z</time>
      </trkpt>
      <trkpt lat="45.40248" lon="4.62798">
        <ele>932.4</ele>
        <time>2023-07-28T11:04:58.252Z</time>
      </trkpt>
      <trkpt lat="45.40243" lon="4.62792">
        <ele>933</ele>
        <time>2023-07-28T11:05:02.011Z</time>
      </trkpt>
      <trkpt lat="45.40239" lon="4.62786">
        <ele>933.2</ele>
        <time>2023-07-28T11:05:05.777Z</time>
      </trkpt>
      <trkpt lat="45.40238" lon="4.62784">
        <ele>933.2</ele>
        <time>2023-07-28T11:05:09.545Z</time>
      </trkpt>
      <trkpt lat="45.40237" lon="4.62783">
        <ele>933.4</ele>
        <time>2023-07-28T11:05:13.314Z</time>
      </trkpt>
      <trkpt lat="45.40235" lon="4.6278">
        <ele>933.8</ele>
        <time>2023-07-28T11:05:17.086Z</time>
      </trkpt>
      <trkpt lat="45.4023" lon="4.62778">
        <ele>934</ele>
        <time>2023-07-28T11:05:20.865Z</time>
      </trkpt>
      <trkpt lat="45.40228" lon="4.62775">
        <ele>933.4</ele>
        <time>2023-07-28T11:05:24.648Z</time>
      </trkpt>
      <trkpt lat="45.40226" lon="4.62769">
        <ele>933</ele>
        <time>2023-07-28T11:05:28.436Z</time>
      </trkpt>
      <trkpt lat="45.40217" lon="4.62764">
        <ele>933</ele>
        <time>2023-07-28T11:05:32.235Z</time>
      </trkpt>
      <trkpt lat="45.40194" lon="4.62753">
        <ele>933</ele>
        <time>2023-07-28T11:05:36.063Z</time>
      </trkpt>
      <trkpt lat="45.40183" lon="4.62752">
        <ele>932.2</ele>
        <time>2023-07-28T11:05:39.904Z</time>
      </trkpt>
      <trkpt lat="45.4017" lon="4.62753">
        <ele>931</ele>
        <time>2023-07-28T11:05:43.761Z</time>
      </trkpt>
      <trkpt lat="45.40166" lon="4.62753">
        <ele>930.4</ele>
        <time>2023-07-28T11:05:47.622Z</time>
      </trkpt>
      <trkpt lat="45.40163" lon="4.62751">
        <ele>930.6</ele>
        <time>2023-07-28T11:05:51.487Z</time>
      </trkpt>
      <trkpt lat="45.40161" lon="4.62748">
        <ele>930.8</ele>
        <time>2023-07-28T11:05:55.355Z</time>
      </trkpt>
      <trkpt lat="45.40158" lon="4.62743">
        <ele>931.2</ele>
        <time>2023-07-28T11:05:59.229Z</time>
      </trkpt>
      <trkpt lat="45.40155" lon="4.62739">
        <ele>931.6</ele>
        <time>2023-07-28T11:06:03.107Z</time>
      </trkpt>
      <trkpt lat="45.40154" lon="4.62737">
        <ele>932</ele>
        <time>2023-07-28T11:06:06.988Z</time>
      </trkpt>
      <trkpt lat="45.40154" lon="4.62736">
        <ele>932.2</ele>
        <time>2023-07-28T11:06:10.869Z</time>
      </trkpt>
      <trkpt lat="45.40151" lon="4.62733">
        <ele>933.2</ele>
        <time>2023-07-28T11:06:14.755Z</time>
      </trkpt>
      <trkpt lat="45.40148" lon="4.62726">
        <ele>933.8</ele>
        <time>2023-07-28T11:06:18.648Z</time>
      </trkpt>
      <trkpt lat="45.40145" lon="4.62723">
        <ele>934.4</ele>
        <time>2023-07-28T11:06:22.545Z</time>
      </trkpt>
      <trkpt lat="45.40141" lon="4.62718">
        <ele>934.8</ele>
        <time>2023-07-28T11:06:26.448Z</time>
      </trkpt>
      <trkpt lat="45.4014" lon="4.62716">
        <ele>934.8</ele>
        <time>2023-07-28T11:06:30.353Z</time>
      </trkpt>
      <trkpt lat="45.40136" lon="4.62711">
        <ele>935.4</ele>
        <time>2023-07-28T11:06:34.264Z</time>
      </trkpt>
      <trkpt lat="45.40134" lon="4.62706">
        <ele>936.2</ele>
        <time>2023-07-28T11:06:38.180Z</time>
      </trkpt>
      <trkpt lat="45.40134" lon="4.62704">
        <ele>936.6</ele>
        <time>2023-07-28T11:06:42.098Z</time>
      </trkpt>
      <trkpt lat="45.40132" lon="4.627">
        <ele>937</ele>
        <time>2023-07-28T11:06:46.020Z</time>
      </trkpt>
      <trkpt lat="45.40131" lon="4.62698">
        <ele>937.2</ele>
        <time>2023-07-28T11:06:49.944Z</time>
      </trkpt>
      <trkpt lat="45.40126" lon="4.62695">
        <ele>937.6</ele>
        <time>2023-07-28T11:06:53.874Z</time>
      </trkpt>
      <trkpt lat="45.40123" lon="4.62694">
        <ele>938</ele>
        <time>2023-07-28T11:06:57.808Z</time>
      </trkpt>
      <trkpt lat="45.40117" lon="4.62691">
        <ele>938.6</ele>
        <time>2023-07-28T11:07:01.749Z</time>
      </trkpt>
      <trkpt lat="45.40115" lon="4.6269">
        <ele>938.8</ele>
        <time>2023-07-28T11:07:05.693Z</time>
      </trkpt>
      <trkpt lat="45.40112" lon="4.62686">
        <ele>939.4</ele>
        <time>2023-07-28T11:07:09.642Z</time>
      </trkpt>
      <trkpt lat="45.40109" lon="4.62684">
        <ele>939.8</ele>
        <time>2023-07-28T11:07:13.595Z</time>
      </trkpt>
      <trkpt lat="45.40109" lon="4.62683">
        <ele>939.8</ele>
        <time>2023-07-28T11:07:17.549Z</time>
      </trkpt>
      <trkpt lat="45.40107" lon="4.62682">
        <ele>940.2</ele>
        <time>2023-07-28T11:07:21.505Z</time>
      </trkpt>
      <trkpt lat="45.40105" lon="4.6268">
        <ele>940.4</ele>
        <time>2023-07-28T11:07:25.463Z</time>
      </trkpt>
      <trkpt lat="45.40104" lon="4.6268">
        <ele>940.4</ele>
        <time>2023-07-28T11:07:29.424Z</time>
      </trkpt>
      <trkpt lat="45.40101" lon="4.62678">
        <ele>940.6</ele>
        <time>2023-07-28T11:07:33.387Z</time>
      </trkpt>
      <trkpt lat="45.401" lon="4.62676">
        <ele>940.8</ele>
        <time>2023-07-28T11:07:37.353Z</time>
      </trkpt>
      <trkpt lat="45.40099" lon="4.62671">
        <ele>941</ele>
        <time>2023-07-28T11:07:41.323Z</time>
      </trkpt>
      <trkpt lat="45.40098" lon="4.62663">
        <ele>941.4</ele>
        <time>2023-07-28T11:07:45.300Z</time>
      </trkpt>
      <trkpt lat="45.40098" lon="4.62659">
        <ele>941.6</ele>
        <time>2023-07-28T11:07:49.280Z</time>
      </trkpt>
      <trkpt lat="45.40097" lon="4.62658">
        <ele>941.8</ele>
        <time>2023-07-28T11:07:53.262Z</time>
      </trkpt>
      <trkpt lat="45.40093" lon="4.62654">
        <ele>942</ele>
        <time>2023-07-28T11:07:57.249Z</time>
      </trkpt>
      <trkpt lat="45.40091" lon="4.6265">
        <ele>942.4</ele>
        <time>2023-07-28T11:08:01.240Z</time>
      </trkpt>
      <trkpt lat="45.40087" lon="4.62647">
        <ele>942.6</ele>
        <time>2023-07-28T11:08:05.236Z</time>
      </trkpt>
      <trkpt lat="45.40084" lon="4.62644">
        <ele>942.8</ele>
        <time>2023-07-28T11:08:09.237Z</time>
      </trkpt>
      <trkpt lat="45.40082" lon="4.62643">
        <ele>943</ele>
        <time>2023-07-28T11:08:13.240Z</time>
      </trkpt>
      <trkpt lat="45.4008" lon="4.62635">
        <ele>943.4</ele>
        <time>2023-07-28T11:08:17.251Z</time>
      </trkpt>
      <trkpt lat="45.40072" lon="4.62628">
        <ele>943.6</ele>
        <time>2023-07-28T11:08:21.273Z</time>
      </trkpt>
      <trkpt lat="45.40068" lon="4.62627">
        <ele>943.8</ele>
        <time>2023-07-28T11:08:25.299Z</time>
      </trkpt>
      <trkpt lat="45.40067" lon="4.62625">
        <ele>943.8</ele>
        <time>2023-07-28T11:08:29.328Z</time>
      </trkpt>
      <trkpt lat="45.40065" lon="4.62622">
        <ele>944</ele>
        <time>2023-07-28T11:08:33.359Z</time>
      </trkpt>
      <trkpt lat="45.40061" lon="4.62615">
        <ele>944</ele>
        <time>2023-07-28T11:08:37.399Z</time>
      </trkpt>
      <trkpt lat="45.40051" lon="4.62606">
        <ele>944.2</ele>
        <time>2023-07-28T11:08:41.451Z</time>
      </trkpt>
      <trkpt lat="45.40045" lon="4.62605">
        <ele>944.2</ele>
        <time>2023-07-28T11:08:45.511Z</time>
      </trkpt>
      <trkpt lat="45.40043" lon="4.62605">
        <ele>944.4</ele>
        <time>2023-07-28T11:08:49.573Z</time>
      </trkpt>
      <trkpt lat="45.40041" lon="4.62605">
        <ele>944.4</ele>
        <time>2023-07-28T11:08:53.638Z</time>
      </trkpt>
      <trkpt lat="45.40039" lon="4.62605">
        <ele>944.4</ele>
        <time>2023-07-28T11:08:57.705Z</time>
      </trkpt>
      <trkpt lat="45.40036" lon="4.62604">
        <ele>944.4</ele>
        <time>2023-07-28T11:09:01.776Z</time>
      </trkpt>
      <trkpt lat="45.40032" lon="4.62603">
        <ele>944.4</ele>
        <time>2023-07-28T11:09:05.852Z</time>
      </trkpt>
      <trkpt lat="45.40028" lon="4.62602">
        <ele>944.4</ele>
        <time>2023-07-28T11:09:09.932Z</time>
      </trkpt>
      <trkpt lat="45.40026" lon="4.62599">
        <ele>944.4</ele>
        <time>2023-07-28T11:09:14.016Z</time>
      </trkpt>
      <trkpt lat="45.40024" lon="4.62597">
        <ele>944.2</ele>
        <time>2023-07-28T11:09:18.103Z</time>
      </trkpt>
      <trkpt lat="45.40021" lon="4.62596">
        <ele>944</ele>
        <time>2023-07-28T11:09:22.193Z</time>
      </trkpt>
      <trkpt lat="45.40018" lon="4.62596">
        <ele>944</ele>
        <time>2023-07-28T11:09:26.287Z</time>
      </trkpt>
      <trkpt lat="45.40011" lon="4.62593">
        <ele>943.6</ele>
        <time>2023-07-28T11:09:30.390Z</time>
      </trkpt>
      <trkpt lat="45.39995" lon="4.62579">
        <ele>944.2</ele>
        <time>2023-07-28T11:09:34.515Z</time>
      </trkpt>
      <trkpt lat="45.39991" lon="4.62578">
        <ele>944.4</ele>
        <time>2023-07-28T11:09:38.645Z</time>
      </trkpt>
      <trkpt lat="45.3998" lon="4.62572">
        <ele>945</ele>
        <time>2023-07-28T11:09:42.789Z</time>
      </trkpt>
      <trkpt lat="45.39978" lon="4.62571">
        <ele>945</ele>
        <time>2023-07-28T11:09:46.935Z</time>
      </trkpt>
      <trkpt lat="45.39977" lon="4.62571">
        <ele>945</ele>
        <time>2023-07-28T11:09:51.083Z</time>
      </trkpt>
      <trkpt lat="45.39969" lon="4.62565">
        <ele>945.6</ele>
        <time>2023-07-28T11:09:55.240Z</time>
      </trkpt>
      <trkpt lat="45.39967" lon="4.6256">
        <ele>945.8</ele>
        <time>2023-07-28T11:09:59.403Z</time>
      </trkpt>
      <trkpt lat="45.39966" lon="4.62558">
        <ele>946</ele>
        <time>2023-07-28T11:10:03.568Z</time>
      </trkpt>
      <trkpt lat="45.39963" lon="4.62556">
        <ele>946</ele>
        <time>2023-07-28T11:10:07.737Z</time>
      </trkpt>
      <trkpt lat="45.39959" lon="4.62557">
        <ele>946</ele>
        <time>2023-07-28T11:10:11.910Z</time>
      </trkpt>
      <trkpt lat="45.39958" lon="4.62548">
        <ele>946</ele>
        <time>2023-07-28T11:10:16.091Z</time>
      </trkpt>
      <trkpt lat="45.39948" lon="4.62547">
        <ele>946.2</ele>
        <time>2023-07-28T11:10:20.283Z</time>
      </trkpt>
      <trkpt lat="45.39947" lon="4.62545">
        <ele>946.2</ele>
        <time>2023-07-28T11:10:24.478Z</time>
      </trkpt>
      <trkpt lat="45.39945" lon="4.62542">
        <ele>946.4</ele>
        <time>2023-07-28T11:10:28.676Z</time>
      </trkpt>
      <trkpt lat="45.3994" lon="4.62536">
        <ele>947</ele>
        <time>2023-07-28T11:10:32.882Z</time>
      </trkpt>
      <trkpt lat="45.39936" lon="4.62532">
        <ele>947.2</ele>
        <time>2023-07-28T11:10:37.094Z</time>
      </trkpt>
      <trkpt lat="45.39931" lon="4.62526">
        <ele>948</ele>
        <time>2023-07-28T11:10:41.314Z</time>
      </trkpt>
      <trkpt lat="45.39915" lon="4.6251">
        <ele>949</ele>
        <time>2023-07-28T11:10:45.556Z</time>
      </trkpt>
      <trkpt lat="45.39913" lon="4.62507">
        <ele>949.2</ele>
        <time>2023-07-28T11:10:49.802Z</time>
      </trkpt>
      <trkpt lat="45.39908" lon="4.62502">
        <ele>949.4</ele>
        <time>2023-07-28T11:10:54.055Z</time>
      </trkpt>
      <trkpt lat="45.39904" lon="4.625">
        <ele>949.8</ele>
        <time>2023-07-28T11:10:58.313Z</time>
      </trkpt>
      <trkpt lat="45.39899" lon="4.62495">
        <ele>950</ele>
        <time>2023-07-28T11:11:02.579Z</time>
      </trkpt>
      <trkpt lat="45.39898" lon="4.62494">
        <ele>950.2</ele>
        <time>2023-07-28T11:11:06.846Z</time>
      </trkpt>
      <trkpt lat="45.39893" lon="4.62492">
        <ele>950.6</ele>
        <time>2023-07-28T11:11:11.119Z</time>
      </trkpt>
      <trkpt lat="45.39886" lon="4.62483">
        <ele>951.2</ele>
        <time>2023-07-28T11:11:15.403Z</time>
      </trkpt>
      <trkpt lat="45.39881" lon="4.6248">
        <ele>951.4</ele>
        <time>2023-07-28T11:11:19.694Z</time>
      </trkpt>
      <trkpt lat="45.39879" lon="4.62478">
        <ele>951.4</ele>
        <time>2023-07-28T11:11:23.987Z</time>
      </trkpt>
      <trkpt lat="45.39877" lon="4.62475">
        <ele>951.4</ele>
        <time>2023-07-28T11:11:28.284Z</time>
      </trkpt>
      <trkpt lat="45.39871" lon="4.62473">
        <ele>951.8</ele>
        <time>2023-07-28T11:11:32.588Z</time>
      </trkpt>
      <trkpt lat="45.39869" lon="4.62473">
        <ele>951.8</ele>
        <time>2023-07-28T11:11:36.895Z</time>
      </trkpt>
      <trkpt lat="45.39866" lon="4.62472">
        <ele>952</ele>
        <time>2023-07-28T11:11:41.205Z</time>
      </trkpt>
      <trkpt lat="45.39864" lon="4.62471">
        <ele>952</ele>
        <time>2023-07-28T11:11:45.518Z</time>
      </trkpt>
      <trkpt lat="45.3986" lon="4.62471">
        <ele>952</ele>
        <time>2023-07-28T11:11:49.836Z</time>
      </trkpt>
      <trkpt lat="45.39857" lon="4.62471">
        <ele>952.2</ele>
        <time>2023-07-28T11:11:54.158Z</time>
      </trkpt>
      <trkpt lat="45.39856" lon="4.62469">
        <ele>952.2</ele>
        <time>2023-07-28T11:11:58.481Z</time>
      </trkpt>
      <trkpt lat="45.39853" lon="4.62467">
        <ele>952.6</ele>
        <time>2023-07-28T11:12:02.808Z</time>
      </trkpt>
      <trkpt lat="45.39851" lon="4.62465">
        <ele>953</ele>
        <time>2023-07-28T11:12:07.138Z</time>
      </trkpt>
      <trkpt lat="45.39847" lon="4.62463">
        <ele>953.4</ele>
        <time>2023-07-28T11:12:11.473Z</time>
      </trkpt>
      <trkpt lat="45.39844" lon="4.62461">
        <ele>953.6</ele>
        <time>2023-07-28T11:12:15.811Z</time>
      </trkpt>
      <trkpt lat="45.39841" lon="4.62459">
        <ele>953.8</ele>
        <time>2023-07-28T11:12:20.154Z</time>
      </trkpt>
      <trkpt lat="45.3984" lon="4.62457">
        <ele>953.8</ele>
        <time>2023-07-28T11:12:24.499Z</time>
      </trkpt>
      <trkpt lat="45.39837" lon="4.62455">
        <ele>954.2</ele>
        <time>2023-07-28T11:12:28.848Z</time>
      </trkpt>
      <trkpt lat="45.39835" lon="4.62454">
        <ele>954.4</ele>
        <time>2023-07-28T11:12:33.199Z</time>
      </trkpt>
      <trkpt lat="45.39832" lon="4.62452">
        <ele>954.6</ele>
        <time>2023-07-28T11:12:37.554Z</time>
      </trkpt>
      <trkpt lat="45.39825" lon="4.62444">
        <ele>955.4</ele>
        <time>2023-07-28T11:12:41.919Z</time>
      </trkpt>
      <trkpt lat="45.39824" lon="4.62444">
        <ele>955.6</ele>
        <time>2023-07-28T11:12:46.286Z</time>
      </trkpt>
      <trkpt lat="45.39821" lon="4.62435">
        <ele>955.8</ele>
        <time>2023-07-28T11:12:50.661Z</time>
      </trkpt>
      <trkpt lat="45.39819" lon="4.62435">
        <ele>955.8</ele>
        <time>2023-07-28T11:12:55.038Z</time>
      </trkpt>
      <trkpt lat="45.39817" lon="4.62433">
        <ele>956</ele>
        <time>2023-07-28T11:12:59.417Z</time>
      </trkpt>
      <trkpt lat="45.39815" lon="4.6243">
        <ele>956.4</ele>
        <time>2023-07-28T11:13:03.800Z</time>
      </trkpt>
      <trkpt lat="45.39814" lon="4.62428">
        <ele>956.6</ele>
        <time>2023-07-28T11:13:08.185Z</time>
      </trkpt>
      <trkpt lat="45.39812" lon="4.62426">
        <ele>956.8</ele>
        <time>2023-07-28T11:13:12.573Z</time>
      </trkpt>
      <trkpt lat="45.39811" lon="4.62423">
        <ele>957</ele>
        <time>2023-07-28T11:13:16.963Z</time>
      </trkpt>
      <trkpt lat="45.3981" lon="4.6242">
        <ele>957.4</ele>
        <time>2023-07-28T11:13:21.357Z</time>
      </trkpt>
      <trkpt lat="45.39808" lon="4.62416">
        <ele>957.8</ele>
        <time>2023-07-28T11:13:25.754Z</time>
      </trkpt>
      <trkpt lat="45.39806" lon="4.62415">
        <ele>958</ele>
        <time>2023-07-28T11:13:30.154Z</time>
      </trkpt>
      <trkpt lat="45.39805" lon="4.62414">
        <ele>958.2</ele>
        <time>2023-07-28T11:13:34.556Z</time>
      </trkpt>
      <trkpt lat="45.39804" lon="4.62411">
        <ele>958.6</ele>
        <time>2023-07-28T11:13:38.961Z</time>
      </trkpt>
      <trkpt lat="45.39804" lon="4.62408">
        <ele>959</ele>
        <time>2023-07-28T11:13:43.368Z</time>
      </trkpt>
      <trkpt lat="45.39803" lon="4.62406">
        <ele>959.2</ele>
        <time>2023-07-28T11:13:47.777Z</time>
      </trkpt>
      <trkpt lat="45.39799" lon="4.62396">
        <ele>960</ele>
        <time>2023-07-28T11:13:52.196Z</time>
      </trkpt>
      <trkpt lat="45.39796" lon="4.62395">
        <ele>960.4</ele>
        <time>2023-07-28T11:13:56.619Z</time>
      </trkpt>
      <trkpt lat="45.39794" lon="4.62393">
        <ele>960.6</ele>
        <time>2023-07-28T11:14:01.044Z</time>
      </trkpt>
      <trkpt lat="45.39792" lon="4.62389">
        <ele>961</ele>
        <time>2023-07-28T11:14:05.473Z</time>
      </trkpt>
      <trkpt lat="45.39791" lon="4.62386">
        <ele>961.4</ele>
        <time>2023-07-28T11:14:09.905Z</time>
      </trkpt>
      <trkpt lat="45.39789" lon="4.6238">
        <ele>962.2</ele>
        <time>2023-07-28T11:14:14.343Z</time>
      </trkpt>
      <trkpt lat="45.39788" lon="4.62377">
        <ele>962.4</ele>
        <time>2023-07-28T11:14:18.783Z</time>
      </trkpt>
      <trkpt lat="45.39787" lon="4.62376">
        <ele>962.6</ele>
        <time>2023-07-28T11:14:23.225Z</time>
      </trkpt>
      <trkpt lat="45.39784" lon="4.62373">
        <ele>963.2</ele>
        <time>2023-07-28T11:14:27.671Z</time>
      </trkpt>
      <trkpt lat="45.39782" lon="4.6237">
        <ele>963.6</ele>
        <time>2023-07-28T11:14:32.121Z</time>
      </trkpt>
      <trkpt lat="45.3978" lon="4.62369">
        <ele>963.8</ele>
        <time>2023-07-28T11:14:36.573Z</time>
      </trkpt>
      <trkpt lat="45.39779" lon="4.62367">
        <ele>964.4</ele>
        <time>2023-07-28T11:14:41.028Z</time>
      </trkpt>
      <trkpt lat="45.39775" lon="4.62362">
        <ele>965.4</ele>
        <time>2023-07-28T11:14:45.489Z</time>
      </trkpt>
      <trkpt lat="45.39769" lon="4.6236">
        <ele>965.6</ele>
        <time>2023-07-28T11:14:49.957Z</time>
      </trkpt>
      <trkpt lat="45.39767" lon="4.62359">
        <ele>965.6</ele>
        <time>2023-07-28T11:14:54.427Z</time>
      </trkpt>
      <trkpt lat="45.39763" lon="4.62348">
        <ele>965.8</ele>
        <time>2023-07-28T11:14:58.908Z</time>
      </trkpt>
      <trkpt lat="45.39759" lon="4.62345">
        <ele>965.8</ele>
        <time>2023-07-28T11:15:03.394Z</time>
      </trkpt>
      <trkpt lat="45.39754" lon="4.62341">
        <ele>966.6</ele>
        <time>2023-07-28T11:15:07.887Z</time>
      </trkpt>
      <trkpt lat="45.39753" lon="4.62342">
        <ele>966.8</ele>
        <time>2023-07-28T11:15:12.380Z</time>
      </trkpt>
      <trkpt lat="45.39752" lon="4.62333">
        <ele>967.2</ele>
        <time>2023-07-28T11:15:16.881Z</time>
      </trkpt>
      <trkpt lat="45.39751" lon="4.62329">
        <ele>967.6</ele>
        <time>2023-07-28T11:15:21.385Z</time>
      </trkpt>
      <trkpt lat="45.39749" lon="4.62324">
        <ele>968.4</ele>
        <time>2023-07-28T11:15:25.894Z</time>
      </trkpt>
      <trkpt lat="45.39748" lon="4.62323">
        <ele>968.8</ele>
        <time>2023-07-28T11:15:30.405Z</time>
      </trkpt>
      <trkpt lat="45.39745" lon="4.62322">
        <ele>969.4</ele>
        <time>2023-07-28T11:15:34.920Z</time>
      </trkpt>
      <trkpt lat="45.39742" lon="4.62321">
        <ele>970</ele>
        <time>2023-07-28T11:15:39.438Z</time>
      </trkpt>
      <trkpt lat="45.3974" lon="4.62319">
        <ele>970.4</ele>
        <time>2023-07-28T11:15:43.960Z</time>
      </trkpt>
      <trkpt lat="45.39737" lon="4.62313">
        <ele>971.2</ele>
        <time>2023-07-28T11:15:48.487Z</time>
      </trkpt>
      <trkpt lat="45.39737" lon="4.6231">
        <ele>971.4</ele>
        <time>2023-07-28T11:15:53.017Z</time>
      </trkpt>
      <trkpt lat="45.39737" lon="4.62308">
        <ele>971.6</ele>
        <time>2023-07-28T11:15:57.548Z</time>
      </trkpt>
      <trkpt lat="45.39735" lon="4.62304">
        <ele>972</ele>
        <time>2023-07-28T11:16:02.083Z</time>
      </trkpt>
      <trkpt lat="45.39734" lon="4.62304">
        <ele>972.2</ele>
        <time>2023-07-28T11:16:06.619Z</time>
      </trkpt>
      <trkpt lat="45.39733" lon="4.623">
        <ele>972.6</ele>
        <time>2023-07-28T11:16:11.159Z</time>
      </trkpt>
      <trkpt lat="45.3973" lon="4.62295">
        <ele>973</ele>
        <time>2023-07-28T11:16:15.704Z</time>
      </trkpt>
      <trkpt lat="45.39729" lon="4.62294">
        <ele>973.2</ele>
        <time>2023-07-28T11:16:20.250Z</time>
      </trkpt>
      <trkpt lat="45.39727" lon="4.62291">
        <ele>973.6</ele>
        <time>2023-07-28T11:16:24.800Z</time>
      </trkpt>
      <trkpt lat="45.39726" lon="4.62286">
        <ele>974.2</ele>
        <time>2023-07-28T11:16:29.354Z</time>
      </trkpt>
      <trkpt lat="45.39724" lon="4.62279">
        <ele>975.4</ele>
        <time>2023-07-28T11:16:33.915Z</time>
      </trkpt>
      <trkpt lat="45.39719" lon="4.62275">
        <ele>976.4</ele>
        <time>2023-07-28T11:16:38.483Z</time>
      </trkpt>
      <trkpt lat="45.39712" lon="4.62266">
        <ele>977.4</ele>
        <time>2023-07-28T11:16:43.061Z</time>
      </trkpt>
      <trkpt lat="45.39706" lon="4.62259">
        <ele>978</ele>
        <time>2023-07-28T11:16:47.648Z</time>
      </trkpt>
      <trkpt lat="45.39705" lon="4.62257">
        <ele>978</ele>
        <time>2023-07-28T11:16:52.238Z</time>
      </trkpt>
      <trkpt lat="45.39703" lon="4.62254">
        <ele>978.2</ele>
        <time>2023-07-28T11:16:56.830Z</time>
      </trkpt>
      <trkpt lat="45.39702" lon="4.62252">
        <ele>978.6</ele>
        <time>2023-07-28T11:17:01.425Z</time>
      </trkpt>
      <trkpt lat="45.39701" lon="4.6225">
        <ele>978.8</ele>
        <time>2023-07-28T11:17:06.022Z</time>
      </trkpt>
      <trkpt lat="45.39701" lon="4.62247">
        <ele>979</ele>
        <time>2023-07-28T11:17:10.622Z</time>
      </trkpt>
      <trkpt lat="45.39699" lon="4.6224">
        <ele>979.6</ele>
        <time>2023-07-28T11:17:15.228Z</time>
      </trkpt>
      <trkpt lat="45.39698" lon="4.62238">
        <ele>979.8</ele>
        <time>2023-07-28T11:17:19.836Z</time>
      </trkpt>
      <trkpt lat="45.39696" lon="4.62231">
        <ele>980.4</ele>
        <time>2023-07-28T11:17:24.450Z</time>
      </trkpt>
      <trkpt lat="45.39694" lon="4.62229">
        <ele>980.6</ele>
        <time>2023-07-28T11:17:29.067Z</time>
      </trkpt>
      <trkpt lat="45.39694" lon="4.62228">
        <ele>980.8</ele>
        <time>2023-07-28T11:17:33.685Z</time>
      </trkpt>
      <trkpt lat="45.39694" lon="4.62226">
        <ele>981</ele>
        <time>2023-07-28T11:17:38.305Z</time>
      </trkpt>
      <trkpt lat="45.39695" lon="4.62219">
        <ele>981.6</ele>
        <time>2023-07-28T11:17:42.931Z</time>
      </trkpt>
      <trkpt lat="45.39696" lon="4.62218">
        <ele>981.6</ele>
        <time>2023-07-28T11:17:47.558Z</time>
      </trkpt>
      <trkpt lat="45.39696" lon="4.62214">
        <ele>982</ele>
        <time>2023-07-28T11:17:52.188Z</time>
      </trkpt>
      <trkpt lat="45.39695" lon="4.62211">
        <ele>982.2</ele>
        <time>2023-07-28T11:17:56.821Z</time>
      </trkpt>
      <trkpt lat="45.39693" lon="4.62208">
        <ele>982.8</ele>
        <time>2023-07-28T11:18:01.457Z</time>
      </trkpt>
      <trkpt lat="45.3969" lon="4.62204">
        <ele>983.4</ele>
        <time>2023-07-28T11:18:06.099Z</time>
      </trkpt>
      <trkpt lat="45.39689" lon="4.62203">
        <ele>983.6</ele>
        <time>2023-07-28T11:18:10.742Z</time>
      </trkpt>
      <trkpt lat="45.39689" lon="4.62202">
        <ele>983.8</ele>
        <time>2023-07-28T11:18:15.386Z</time>
      </trkpt>
      <trkpt lat="45.39689" lon="4.62193">
        <ele>984.8</ele>
        <time>2023-07-28T11:18:20.037Z</time>
      </trkpt>
      <trkpt lat="45.39689" lon="4.62185">
        <ele>985.8</ele>
        <time>2023-07-28T11:18:24.696Z</time>
      </trkpt>
      <trkpt lat="45.39689" lon="4.62184">
        <ele>986</ele>
        <time>2023-07-28T11:18:29.355Z</time>
      </trkpt>
      <trkpt lat="45.39688" lon="4.62183">
        <ele>986</ele>
        <time>2023-07-28T11:18:34.016Z</time>
      </trkpt>
      <trkpt lat="45.39687" lon="4.6218">
        <ele>986.4</ele>
        <time>2023-07-28T11:18:38.679Z</time>
      </trkpt>
      <trkpt lat="45.39685" lon="4.62177">
        <ele>987</ele>
        <time>2023-07-28T11:18:43.346Z</time>
      </trkpt>
      <trkpt lat="45.3968" lon="4.62151">
        <ele>987.4</ele>
        <time>2023-07-28T11:18:48.035Z</time>
      </trkpt>
      <trkpt lat="45.39674" lon="4.62127">
        <ele>987.8</ele>
        <time>2023-07-28T11:18:52.745Z</time>
      </trkpt>
      <trkpt lat="45.39672" lon="4.62123">
        <ele>987.8</ele>
        <time>2023-07-28T11:18:57.459Z</time>
      </trkpt>
      <trkpt lat="45.3967" lon="4.62119">
        <ele>988.2</ele>
        <time>2023-07-28T11:19:02.178Z</time>
      </trkpt>
      <trkpt lat="45.39668" lon="4.62116">
        <ele>988.2</ele>
        <time>2023-07-28T11:19:06.900Z</time>
      </trkpt>
      <trkpt lat="45.39668" lon="4.62114">
        <ele>989.2</ele>
        <time>2023-07-28T11:19:11.624Z</time>
      </trkpt>
      <trkpt lat="45.39668" lon="4.62112">
        <ele>990.2</ele>
        <time>2023-07-28T11:19:16.350Z</time>
      </trkpt>
      <trkpt lat="45.39666" lon="4.62109">
        <ele>991.2</ele>
        <time>2023-07-28T11:19:21.079Z</time>
      </trkpt>
      <trkpt lat="45.39653" lon="4.62102">
        <ele>992.4</ele>
        <time>2023-07-28T11:19:25.824Z</time>
      </trkpt>
      <trkpt lat="45.39648" lon="4.62103">
        <ele>993.4</ele>
        <time>2023-07-28T11:19:30.575Z</time>
      </trkpt>
      <trkpt lat="45.39644" lon="4.62102">
        <ele>994.6</ele>
        <time>2023-07-28T11:19:35.330Z</time>
      </trkpt>
      <trkpt lat="45.39641" lon="4.62097">
        <ele>995.8</ele>
        <time>2023-07-28T11:19:40.091Z</time>
      </trkpt>
      <trkpt lat="45.3964" lon="4.62094">
        <ele>997</ele>
        <time>2023-07-28T11:19:44.856Z</time>
      </trkpt>
      <trkpt lat="45.39635" lon="4.62084">
        <ele>998</ele>
        <time>2023-07-28T11:19:49.631Z</time>
      </trkpt>
      <trkpt lat="45.39627" lon="4.62082">
        <ele>999</ele>
        <time>2023-07-28T11:19:54.415Z</time>
      </trkpt>
      <trkpt lat="45.39623" lon="4.6208">
        <ele>1000</ele>
        <time>2023-07-28T11:19:59.205Z</time>
      </trkpt>
      <trkpt lat="45.39618" lon="4.62072">
        <ele>1001.2</ele>
        <time>2023-07-28T11:20:04.003Z</time>
      </trkpt>
      <trkpt lat="45.3961" lon="4.62069">
        <ele>1002</ele>
        <time>2023-07-28T11:20:08.811Z</time>
      </trkpt>
      <trkpt lat="45.39608" lon="4.6207">
        <ele>1002.2</ele>
        <time>2023-07-28T11:20:13.621Z</time>
      </trkpt>
      <trkpt lat="45.39605" lon="4.6207">
        <ele>1002.6</ele>
        <time>2023-07-28T11:20:18.435Z</time>
      </trkpt>
      <trkpt lat="45.39595" lon="4.62065">
        <ele>1003.2</ele>
        <time>2023-07-28T11:20:23.261Z</time>
      </trkpt>
      <trkpt lat="45.39575" lon="4.62065">
        <ele>1004</ele>
        <time>2023-07-28T11:20:28.110Z</time>
      </trkpt>
      <trkpt lat="45.39563" lon="4.62061">
        <ele>1003.8</ele>
        <time>2023-07-28T11:20:32.975Z</time>
      </trkpt>
      <trkpt lat="45.39559" lon="4.62061">
        <ele>1003.8</ele>
        <time>2023-07-28T11:20:37.844Z</time>
      </trkpt>
      <trkpt lat="45.39556" lon="4.62061">
        <ele>1003.8</ele>
        <time>2023-07-28T11:20:42.717Z</time>
      </trkpt>
      <trkpt lat="45.39553" lon="4.6206">
        <ele>1004</ele>
        <time>2023-07-28T11:20:47.594Z</time>
      </trkpt>
      <trkpt lat="45.39551" lon="4.6206">
        <ele>1004.4</ele>
        <time>2023-07-28T11:20:52.473Z</time>
      </trkpt>
      <trkpt lat="45.39551" lon="4.6206">
        <ele>1004.6</ele>
        <time>2023-07-28T11:20:57.352Z</time>
      </trkpt>
      <trkpt lat="45.39549" lon="4.62059">
        <ele>1005</ele>
        <time>2023-07-28T11:21:02.233Z</time>
      </trkpt>
      <trkpt lat="45.39547" lon="4.62056">
        <ele>1005.6</ele>
        <time>2023-07-28T11:21:07.118Z</time>
      </trkpt>
      <trkpt lat="45.39543" lon="4.62051">
        <ele>1006.6</ele>
        <time>2023-07-28T11:21:12.009Z</time>
      </trkpt>
      <trkpt lat="45.39545" lon="4.62042">
        <ele>1007.6</ele>
        <time>2023-07-28T11:21:16.907Z</time>
      </trkpt>
      <trkpt lat="45.39532" lon="4.62044">
        <ele>1007.6</ele>
        <time>2023-07-28T11:21:21.820Z</time>
      </trkpt>
      <trkpt lat="45.3952" lon="4.62033">
        <ele>1008.8</ele>
        <time>2023-07-28T11:21:26.750Z</time>
      </trkpt>
      <trkpt lat="45.39509" lon="4.62034">
        <ele>1007.8</ele>
        <time>2023-07-28T11:21:31.693Z</time>
      </trkpt>
      <trkpt lat="45.39501" lon="4.62046">
        <ele>1007</ele>
        <time>2023-07-28T11:21:36.649Z</time>
      </trkpt>
      <trkpt lat="45.39499" lon="4.62048">
        <ele>1006.6</ele>
        <time>2023-07-28T11:21:41.609Z</time>
      </trkpt>
      <trkpt lat="45.39488" lon="4.62057">
        <ele>1007.2</ele>
        <time>2023-07-28T11:21:46.583Z</time>
      </trkpt>
      <trkpt lat="45.39488" lon="4.62058">
        <ele>1007.2</ele>
        <time>2023-07-28T11:21:51.558Z</time>
      </trkpt>
      <trkpt lat="45.39487" lon="4.6206">
        <ele>1007.2</ele>
        <time>2023-07-28T11:21:56.535Z</time>
      </trkpt>
      <trkpt lat="45.39486" lon="4.62062">
        <ele>1006.8</ele>
        <time>2023-07-28T11:22:01.515Z</time>
      </trkpt>
      <trkpt lat="45.39484" lon="4.62064">
        <ele>1006.4</ele>
        <time>2023-07-28T11:22:06.498Z</time>
      </trkpt>
      <trkpt lat="45.39483" lon="4.62066">
        <ele>1006.2</ele>
        <time>2023-07-28T11:22:11.483Z</time>
      </trkpt>
      <trkpt lat="45.39482" lon="4.62068">
        <ele>1005.6</ele>
        <time>2023-07-28T11:22:16.470Z</time>
      </trkpt>
      <trkpt lat="45.39479" lon="4.62075">
        <ele>1004.4</ele>
        <time>2023-07-28T11:22:21.464Z</time>
      </trkpt>
      <trkpt lat="45.39476" lon="4.62082">
        <ele>1003.2</ele>
        <time>2023-07-28T11:22:26.464Z</time>
      </trkpt>
      <trkpt lat="45.39473" lon="4.62084">
        <ele>1002.2</ele>
        <time>2023-07-28T11:22:31.469Z</time>
      </trkpt>
      <trkpt lat="45.39472" lon="4.62089">
        <ele>1002</ele>
        <time>2023-07-28T11:22:36.478Z</time>
      </trkpt>
      <trkpt lat="45.39471" lon="4.62094">
        <ele>1001.6</ele>
        <time>2023-07-28T11:22:41.491Z</time>
      </trkpt>
      <trkpt lat="45.39472" lon="4.62098">
        <ele>1001</ele>
        <time>2023-07-28T11:22:46.508Z</time>
      </trkpt>
      <trkpt lat="45.3947" lon="4.621">
        <ele>1000.6</ele>
        <time>2023-07-28T11:22:51.527Z</time>
      </trkpt>
      <trkpt lat="45.39467" lon="4.62104">
        <ele>999.8</ele>
        <time>2023-07-28T11:22:56.551Z</time>
      </trkpt>
      <trkpt lat="45.39465" lon="4.62106">
        <ele>999</ele>
        <time>2023-07-28T11:23:01.578Z</time>
      </trkpt>
      <trkpt lat="45.39464" lon="4.62107">
        <ele>998.6</ele>
        <time>2023-07-28T11:23:06.606Z</time>
      </trkpt>
      <trkpt lat="45.39463" lon="4.6211">
        <ele>998.2</ele>
        <time>2023-07-28T11:23:11.638Z</time>
      </trkpt>
      <trkpt lat="45.39463" lon="4.62113">
        <ele>997.8</ele>
        <time>2023-07-28T11:23:16.672Z</time>
      </trkpt>
      <trkpt lat="45.39463" lon="4.62114">
        <ele>997.6</ele>
        <time>2023-07-28T11:23:21.707Z</time>
      </trkpt>
      <trkpt lat="45.39463" lon="4.62116">
        <ele>997.2</ele>
        <time>2023-07-28T11:23:26.743Z</time>
      </trkpt>
      <trkpt lat="45.39461" lon="4.6212">
        <ele>996.4</ele>
        <time>2023-07-28T11:23:31.783Z</time>
      </trkpt>
      <trkpt lat="45.39454" lon="4.62126">
        <ele>995.2</ele>
        <time>2023-07-28T11:23:36.833Z</time>
      </trkpt>
      <trkpt lat="45.3945" lon="4.62139">
        <ele>994.2</ele>
        <time>2023-07-28T11:23:41.895Z</time>
      </trkpt>
      <trkpt lat="45.3945" lon="4.6214">
        <ele>994</ele>
        <time>2023-07-28T11:23:46.958Z</time>
      </trkpt>
      <trkpt lat="45.39451" lon="4.62143">
        <ele>993.6</ele>
        <time>2023-07-28T11:23:52.024Z</time>
      </trkpt>
      <trkpt lat="45.39452" lon="4.62146">
        <ele>993.2</ele>
        <time>2023-07-28T11:23:57.092Z</time>
      </trkpt>
      <trkpt lat="45.39452" lon="4.62146">
        <ele>993</ele>
        <time>2023-07-28T11:24:02.161Z</time>
      </trkpt>
      <trkpt lat="45.39453" lon="4.62147">
        <ele>992.8</ele>
        <time>2023-07-28T11:24:07.231Z</time>
      </trkpt>
      <trkpt lat="45.39453" lon="4.62152">
        <ele>992.2</ele>
        <time>2023-07-28T11:24:12.305Z</time>
      </trkpt>
      <trkpt lat="45.39452" lon="4.62152">
        <ele>992</ele>
        <time>2023-07-28T11:24:17.380Z</time>
      </trkpt>
      <trkpt lat="45.39449" lon="4.62158">
        <ele>991</ele>
        <time>2023-07-28T11:24:22.461Z</time>
      </trkpt>
      <trkpt lat="45.39449" lon="4.62159">
        <ele>990.8</ele>
        <time>2023-07-28T11:24:27.543Z</time>
      </trkpt>
      <trkpt lat="45.39446" lon="4.6216">
        <ele>990.6</ele>
        <time>2023-07-28T11:24:32.627Z</time>
      </trkpt>
      <trkpt lat="45.39439" lon="4.62166">
        <ele>989.8</ele>
        <time>2023-07-28T11:24:37.722Z</time>
      </trkpt>
      <trkpt lat="45.3944" lon="4.62168">
        <ele>989.4</ele>
        <time>2023-07-28T11:24:42.819Z</time>
      </trkpt>
      <trkpt lat="45.3944" lon="4.62173">
        <ele>988.6</ele>
        <time>2023-07-28T11:24:47.920Z</time>
      </trkpt>
      <trkpt lat="45.39439" lon="4.62175">
        <ele>988.4</ele>
        <time>2023-07-28T11:24:53.022Z</time>
      </trkpt>
      <trkpt lat="45.3944" lon="4.62178">
        <ele>988.4</ele>
        <time>2023-07-28T11:24:58.127Z</time>
      </trkpt>
      <trkpt lat="45.39438" lon="4.6218">
        <ele>988.2</ele>
        <time>2023-07-28T11:25:03.235Z</time>
      </trkpt>
      <trkpt lat="45.39437" lon="4.62185">
        <ele>987.6</ele>
        <time>2023-07-28T11:25:08.347Z</time>
      </trkpt>
      <trkpt lat="45.39437" lon="4.62194">
        <ele>986.4</ele>
        <time>2023-07-28T11:25:13.467Z</time>
      </trkpt>
      <trkpt lat="45.39437" lon="4.622">
        <ele>985.4</ele>
        <time>2023-07-28T11:25:18.592Z</time>
      </trkpt>
      <trkpt lat="45.39432" lon="4.62205">
        <ele>984.8</ele>
        <time>2023-07-28T11:25:23.724Z</time>
      </trkpt>
      <trkpt lat="45.39428" lon="4.62205">
        <ele>984.8</ele>
        <time>2023-07-28T11:25:28.860Z</time>
      </trkpt>
      <trkpt lat="45.39425" lon="4.62206">
        <ele>985.2</ele>
        <time>2023-07-28T11:25:34.001Z</time>
        <extensions>
          <visugpx:TrkExtension xmlns:visugpx="https://www.visugpx.com/editgpx/">
            <visugpx:node>1</visugpx:node>
            </visugpx:TrkExtension>
        </extensions>
      </trkpt>
      <trkpt lat="45.39425" lon="4.62223">
        <ele>979.9</ele>
      </trkpt>
      <trkpt lat="45.39439" lon="4.62253">
        <ele>971.5</ele>
      </trkpt>
      <trkpt lat="45.39446" lon="4.62275">
        <ele>966.1</ele>
        <extensions>
          <visugpx:TrkExtension xmlns:visugpx="https://www.visugpx.com/editgpx/">
            <visugpx:node>2</visugpx:node>
            </visugpx:TrkExtension>
        </extensions>
      </trkpt>
      <trkpt lat="45.39459" lon="4.62322">
        <ele>955.2</ele>
      </trkpt>
      <trkpt lat="45.39453" lon="4.62361">
        <ele>948.4</ele>
      </trkpt>
      <trkpt lat="45.39452" lon="4.62361">
        <ele>948.5</ele>
        <extensions>
          <visugpx:TrkExtension xmlns:visugpx="https://www.visugpx.com/editgpx/">
            <visugpx:node>3</visugpx:node>
            </visugpx:TrkExtension>
        </extensions>
      </trkpt>
      <trkpt lat="45.39437" lon="4.62355">
        <ele>948.5</ele>
      </trkpt>
      <trkpt lat="45.39415" lon="4.62339">
        <ele>947.5</ele>
      </trkpt>
      <trkpt lat="45.39393" lon="4.62334">
        <ele>947.2</ele>
      </trkpt>
      <trkpt lat="45.39388" lon="4.62339">
        <ele>946.2</ele>
        <extensions>
          <visugpx:TrkExtension xmlns:visugpx="https://www.visugpx.com/editgpx/">
            <visugpx:node>4</visugpx:node>
            </visugpx:TrkExtension>
        </extensions>
      </trkpt>
      <trkpt lat="45.39369" lon="4.62357">
        <ele>949</ele>
      </trkpt>
      <trkpt lat="45.39358" lon="4.62415">
        <ele>951.2</ele>
      </trkpt>
      <trkpt lat="45.39358" lon="4.62442">
        <ele>951.3</ele>
        <extensions>
          <visugpx:TrkExtension xmlns:visugpx="https://www.visugpx.com/editgpx/">
            <visugpx:node>5</visugpx:node>
            </visugpx:TrkExtension>
        </extensions>
      </trkpt>
      <trkpt lat="45.39358" lon="4.62497">
        <ele>949.9</ele>
      </trkpt>
      <trkpt lat="45.39376" lon="4.62569">
        <ele>944.7</ele>
      </trkpt>
      <trkpt lat="45.39382" lon="4.62583">
        <ele>943.4</ele>
        <extensions>
          <visugpx:TrkExtension xmlns:visugpx="https://www.visugpx.com/editgpx/">
            <visugpx:node>6</visugpx:node>
            </visugpx:TrkExtension>
        </extensions>
      </trkpt>
      <trkpt lat="45.39409" lon="4.62645">
        <ele>939.3</ele>
      </trkpt>
      <trkpt lat="45.39432" lon="4.62724">
        <ele>934.3</ele>
      </trkpt>
      <trkpt lat="45.3944" lon="4.62797">
        <ele>930</ele>
      </trkpt>
      <trkpt lat="45.39439" lon="4.62825">
        <ele>929</ele>
        <extensions>
          <visugpx:TrkExtension xmlns:visugpx="https://www.visugpx.com/editgpx/">
            <visugpx:node>7</visugpx:node>
            </visugpx:TrkExtension>
        </extensions>
      </trkpt>
      <trkpt lat="45.39438" lon="4.62839">
        <ele>928.2</ele>
      </trkpt>
      <trkpt lat="45.39412" lon="4.62926">
        <ele>929.3</ele>
      </trkpt>
      <trkpt lat="45.39401" lon="4.6298">
        <ele>928.8</ele>
      </trkpt>
      <trkpt lat="45.39388" lon="4.63024">
        <ele>929.7</ele>
        <extensions>
          <visugpx:TrkExtension xmlns:visugpx="https://www.visugpx.com/editgpx/">
            <visugpx:node>8</visugpx:node>
            </visugpx:TrkExtension>
        </extensions>
      </trkpt>
      <trkpt lat="45.3937" lon="4.63089">
        <ele>932.2</ele>
      </trkpt>
      <trkpt lat="45.39371" lon="4.63217">
        <ele>921.5</ele>
      </trkpt>
      <trkpt lat="45.39401" lon="4.63351">
        <ele>910</ele>
      </trkpt>
      <trkpt lat="45.3943" lon="4.63451">
        <ele>907.9</ele>
      </trkpt>
      <trkpt lat="45.39488" lon="4.63573">
        <ele>910.9</ele>
      </trkpt>
      <trkpt lat="45.39522" lon="4.63625">
        <ele>909.5</ele>
      </trkpt>
      <trkpt lat="45.3957" lon="4.63678">
        <ele>907.3</ele>
      </trkpt>
      <trkpt lat="45.39627" lon="4.63723">
        <ele>902.5</ele>
      </trkpt>
      <trkpt lat="45.39683" lon="4.63816">
        <ele>890.9</ele>
      </trkpt>
      <trkpt lat="45.39705" lon="4.63868">
        <ele>885.3</ele>
        <extensions>
          <visugpx:TrkExtension xmlns:visugpx="https://www.visugpx.com/editgpx/">
            <visugpx:node>9</visugpx:node>
            </visugpx:TrkExtension>
        </extensions>
      </trkpt>
      <trkpt lat="45.39722" lon="4.63909">
        <ele>878.8</ele>
      </trkpt>
      <trkpt lat="45.39743" lon="4.63988">
        <ele>870.1</ele>
      </trkpt>
      <trkpt lat="45.39737" lon="4.64026">
        <ele>872.2</ele>
      </trkpt>
      <trkpt lat="45.39735" lon="4.6407">
        <ele>868.9</ele>
      </trkpt>
      <trkpt lat="45.39722" lon="4.64118">
        <ele>871.1</ele>
      </trkpt>
      <trkpt lat="45.39725" lon="4.64188">
        <ele>872.5</ele>
      </trkpt>
      <trkpt lat="45.39779" lon="4.64373">
        <ele>877</ele>
      </trkpt>
      <trkpt lat="45.39786" lon="4.64476">
        <ele>880.6</ele>
      </trkpt>
      <trkpt lat="45.39784" lon="4.64489">
        <ele>881.9</ele>
        <extensions>
          <visugpx:TrkExtension xmlns:visugpx="https://www.visugpx.com/editgpx/">
            <visugpx:node>10</visugpx:node>
            </visugpx:TrkExtension>
        </extensions>
      </trkpt>
      <trkpt lat="45.39769" lon="4.64579">
        <ele>886.6</ele>
      </trkpt>
      <trkpt lat="45.39768" lon="4.64597">
        <ele>886.8</ele>
      </trkpt>
      <trkpt lat="45.39761" lon="4.64595">
        <ele>888.8</ele>
      </trkpt>
      <trkpt lat="45.39755" lon="4.64572">
        <ele>890.3</ele>
      </trkpt>
      <trkpt lat="45.39759" lon="4.64525">
        <ele>889.7</ele>
      </trkpt>
      <trkpt lat="45.39753" lon="4.64493">
        <ele>891.5</ele>
      </trkpt>
      <trkpt lat="45.39753" lon="4.64464">
        <ele>891.8</ele>
      </trkpt>
      <trkpt lat="45.39737" lon="4.64396">
        <ele>895.7</ele>
      </trkpt>
      <trkpt lat="45.39732" lon="4.64385">
        <ele>896.8</ele>
      </trkpt>
      <trkpt lat="45.39725" lon="4.64388">
        <ele>899.1</ele>
      </trkpt>
      <trkpt lat="45.39716" lon="4.64421">
        <ele>901</ele>
      </trkpt>
      <trkpt lat="45.39715" lon="4.64431">
        <ele>900.8</ele>
        <extensions>
          <visugpx:TrkExtension xmlns:visugpx="https://www.visugpx.com/editgpx/">
            <visugpx:node>11</visugpx:node>
            </visugpx:TrkExtension>
        </extensions>
      </trkpt>
      <trkpt lat="45.39711" lon="4.64475">
        <ele>900</ele>
      </trkpt>
      <trkpt lat="45.39702" lon="4.6452">
        <ele>900.4</ele>
      </trkpt>
      <trkpt lat="45.39689" lon="4.64471">
        <ele>903.4</ele>
      </trkpt>
      <trkpt lat="45.39685" lon="4.64453">
        <ele>904.6</ele>
      </trkpt>
      <trkpt lat="45.39682" lon="4.64425">
        <ele>906.4</ele>
      </trkpt>
      <trkpt lat="45.39673" lon="4.64408">
        <ele>908.6</ele>
      </trkpt>
      <trkpt lat="45.39665" lon="4.64382">
        <ele>911.8</ele>
      </trkpt>
      <trkpt lat="45.39651" lon="4.64356">
        <ele>915.8</ele>
      </trkpt>
      <trkpt lat="45.39644" lon="4.64346">
        <ele>917.4</ele>
      </trkpt>
      <trkpt lat="45.39641" lon="4.64339">
        <ele>918.3</ele>
        <extensions>
          <visugpx:TrkExtension xmlns:visugpx="https://www.visugpx.com/editgpx/">
            <visugpx:node>12</visugpx:node>
            </visugpx:TrkExtension>
        </extensions>
      </trkpt>
      <trkpt lat="45.39638" lon="4.64333">
        <ele>919.1</ele>
      </trkpt>
      <trkpt lat="45.39626" lon="4.643">
        <ele>920.7</ele>
      </trkpt>
      <trkpt lat="45.39619" lon="4.64275">
        <ele>921.9</ele>
      </trkpt>
      <trkpt lat="45.39613" lon="4.64263">
        <ele>923</ele>
      </trkpt>
      <trkpt lat="45.39585" lon="4.64212">
        <ele>928.9</ele>
      </trkpt>
      <trkpt lat="45.39557" lon="4.64158">
        <ele>939.4</ele>
      </trkpt>
      <trkpt lat="45.39553" lon="4.64147">
        <ele>941.5</ele>
      </trkpt>
      <trkpt lat="45.39545" lon="4.64111">
        <ele>946.3</ele>
      </trkpt>
      <trkpt lat="45.3954" lon="4.64097">
        <ele>948.7</ele>
      </trkpt>
      <trkpt lat="45.39536" lon="4.6409">
        <ele>950.3</ele>
        <extensions>
          <visugpx:TrkExtension xmlns:visugpx="https://www.visugpx.com/editgpx/">
            <visugpx:node>13</visugpx:node>
            </visugpx:TrkExtension>
        </extensions>
      </trkpt>
      <trkpt lat="45.39528" lon="4.64077">
        <ele>953.9</ele>
      </trkpt>
      <trkpt lat="45.39514" lon="4.64064">
        <ele>956.8</ele>
      </trkpt>
      <trkpt lat="45.39515" lon="4.64061">
        <ele>957.1</ele>
      </trkpt>
      <trkpt lat="45.39513" lon="4.64041">
        <ele>959.9</ele>
      </trkpt>
      <trkpt lat="45.39519" lon="4.64032">
        <ele>960.1</ele>
      </trkpt>
      <trkpt lat="45.39523" lon="4.64023">
        <ele>960.4</ele>
      </trkpt>
      <trkpt lat="45.39523" lon="4.64018">
        <ele>961</ele>
      </trkpt>
      <trkpt lat="45.3952" lon="4.64006">
        <ele>963.2</ele>
      </trkpt>
      <trkpt lat="45.39508" lon="4.63993">
        <ele>967.8</ele>
      </trkpt>
      <trkpt lat="45.39505" lon="4.63967">
        <ele>972.4</ele>
      </trkpt>
      <trkpt lat="45.39502" lon="4.63962">
        <ele>974.5</ele>
      </trkpt>
      <trkpt lat="45.39485" lon="4.63964">
        <ele>978</ele>
      </trkpt>
      <trkpt lat="45.39456" lon="4.63957">
        <ele>982.3</ele>
      </trkpt>
      <trkpt lat="45.39455" lon="4.63954">
        <ele>982.9</ele>
      </trkpt>
      <trkpt lat="45.39456" lon="4.63952">
        <ele>983.4</ele>
      </trkpt>
      <trkpt lat="45.39465" lon="4.63946">
        <ele>984.7</ele>
      </trkpt>
      <trkpt lat="45.39476" lon="4.63932">
        <ele>986.8</ele>
      </trkpt>
      <trkpt lat="45.39492" lon="4.6393">
        <ele>983.5</ele>
      </trkpt>
      <trkpt lat="45.39493" lon="4.63928">
        <ele>983.6</ele>
      </trkpt>
      <trkpt lat="45.39491" lon="4.63925">
        <ele>984.7</ele>
      </trkpt>
      <trkpt lat="45.39475" lon="4.63928">
        <ele>987.9</ele>
        <extensions>
          <visugpx:TrkExtension xmlns:visugpx="https://www.visugpx.com/editgpx/">
            <visugpx:node>14</visugpx:node>
            </visugpx:TrkExtension>
        </extensions>
      </trkpt>
      <trkpt lat="45.39468" lon="4.63929">
        <ele>988.3</ele>
      </trkpt>
      <trkpt lat="45.39467" lon="4.63928">
        <ele>988.4</ele>
      </trkpt>
      <trkpt lat="45.39474" lon="4.63924">
        <ele>989</ele>
      </trkpt>
      <trkpt lat="45.3947" lon="4.63922">
        <ele>989.8</ele>
      </trkpt>
      <trkpt lat="45.3946" lon="4.63924">
        <ele>989.1</ele>
      </trkpt>
      <trkpt lat="45.39439" lon="4.63932">
        <ele>986.8</ele>
      </trkpt>
      <trkpt lat="45.39421" lon="4.63932">
        <ele>985.2</ele>
      </trkpt>
      <trkpt lat="45.39408" lon="4.63923">
        <ele>984.4</ele>
      </trkpt>
      <trkpt lat="45.39392" lon="4.63902">
        <ele>982.1</ele>
      </trkpt>
      <trkpt lat="45.39385" lon="4.63887">
        <ele>981</ele>
      </trkpt>
      <trkpt lat="45.39375" lon="4.63847">
        <ele>977</ele>
      </trkpt>
      <trkpt lat="45.39369" lon="4.63814">
        <ele>974.7</ele>
      </trkpt>
      <trkpt lat="45.39364" lon="4.63803">
        <ele>974</ele>
      </trkpt>
      <trkpt lat="45.39358" lon="4.63794">
        <ele>973.5</ele>
      </trkpt>
      <trkpt lat="45.39356" lon="4.6379">
        <ele>973.3</ele>
      </trkpt>
      <trkpt lat="45.39348" lon="4.63768">
        <ele>972.6</ele>
      </trkpt>
      <trkpt lat="45.39345" lon="4.63755">
        <ele>972.3</ele>
      </trkpt>
      <trkpt lat="45.39337" lon="4.63752">
        <ele>972.8</ele>
      </trkpt>
      <trkpt lat="45.39226" lon="4.63664">
        <ele>978.7</ele>
      </trkpt>
      <trkpt lat="45.39174" lon="4.63612">
        <ele>983.9</ele>
      </trkpt>
      <trkpt lat="45.39162" lon="4.63598">
        <ele>985.3</ele>
      </trkpt>
      <trkpt lat="45.39157" lon="4.63583">
        <ele>985.8</ele>
        <extensions>
          <visugpx:TrkExtension xmlns:visugpx="https://www.visugpx.com/editgpx/">
            <visugpx:node>15</visugpx:node>
            </visugpx:TrkExtension>
        </extensions>
      </trkpt>
      <trkpt lat="45.39156" lon="4.63581">
        <ele>986.1</ele>
      </trkpt>
      <trkpt lat="45.39154" lon="4.63563">
        <ele>987.7</ele>
      </trkpt>
      <trkpt lat="45.39152" lon="4.63434">
        <ele>993.9</ele>
      </trkpt>
      <trkpt lat="45.39157" lon="4.633">
        <ele>1000.6</ele>
      </trkpt>
      <trkpt lat="45.3916" lon="4.63264">
        <ele>1002.4</ele>
      </trkpt>
      <trkpt lat="45.39177" lon="4.63143">
        <ele>1006.6</ele>
      </trkpt>
      <trkpt lat="45.39181" lon="4.63128">
        <ele>1007.7</ele>
      </trkpt>
      <trkpt lat="45.3923" lon="4.62991">
        <ele>1013.4</ele>
      </trkpt>
      <trkpt lat="45.39246" lon="4.62942">
        <ele>1015.7</ele>
      </trkpt>
      <trkpt lat="45.39256" lon="4.62896">
        <ele>1017.3</ele>
      </trkpt>
      <trkpt lat="45.39261" lon="4.62865">
        <ele>1019.2</ele>
      </trkpt>
      <trkpt lat="45.39264" lon="4.62827">
        <ele>1020.7</ele>
      </trkpt>
      <trkpt lat="45.39263" lon="4.62755">
        <ele>1022.9</ele>
      </trkpt>
      <trkpt lat="45.3926" lon="4.62722">
        <ele>1024.6</ele>
      </trkpt>
      <trkpt lat="45.39248" lon="4.62675">
        <ele>1027.3</ele>
      </trkpt>
      <trkpt lat="45.39225" lon="4.62617">
        <ele>1029.4</ele>
      </trkpt>
      <trkpt lat="45.39214" lon="4.62586">
        <ele>1031.4</ele>
      </trkpt>
      <trkpt lat="45.39199" lon="4.62519">
        <ele>1033.5</ele>
      </trkpt>
      <trkpt lat="45.39185" lon="4.62411">
        <ele>1039.2</ele>
      </trkpt>
      <trkpt lat="45.39174" lon="4.62298">
        <ele>1043</ele>
      </trkpt>
      <trkpt lat="45.39172" lon="4.62205">
        <ele>1045.7</ele>
      </trkpt>
      <trkpt lat="45.39174" lon="4.62179">
        <ele>1047.5</ele>
      </trkpt>
      <trkpt lat="45.39184" lon="4.62147">
        <ele>1048</ele>
      </trkpt>
      <trkpt lat="45.39185" lon="4.62068">
        <ele>1052.8</ele>
      </trkpt>
      <trkpt lat="45.39188" lon="4.62056">
        <ele>1053.5</ele>
        <extensions>
          <visugpx:TrkExtension xmlns:visugpx="https://www.visugpx.com/editgpx/">
            <visugpx:node>16</visugpx:node>
            </visugpx:TrkExtension>
        </extensions>
      </trkpt>
      <trkpt lat="45.3919" lon="4.6205">
        <ele>1053.7</ele>
      </trkpt>
      <trkpt lat="45.39201" lon="4.62029">
        <ele>1054.6</ele>
      </trkpt>
      <trkpt lat="45.39212" lon="4.62017">
        <ele>1054.8</ele>
      </trkpt>
      <trkpt lat="45.39223" lon="4.6201">
        <ele>1054.2</ele>
      </trkpt>
      <trkpt lat="45.39344" lon="4.61993">
        <ele>1062.3</ele>
      </trkpt>
      <trkpt lat="45.39416" lon="4.6195">
        <ele>1064.3</ele>
      </trkpt>
      <trkpt lat="45.3947" lon="4.6192">
        <ele>1064.4</ele>
      </trkpt>
      <trkpt lat="45.39538" lon="4.61921">
        <ele>1059.4</ele>
      </trkpt>
      <trkpt lat="45.39591" lon="4.61929">
        <ele>1055.7</ele>
      </trkpt>
      <trkpt lat="45.39622" lon="4.61939">
        <ele>1055.6</ele>
      </trkpt>
      <trkpt lat="45.39698" lon="4.61971">
        <ele>1052.3</ele>
      </trkpt>
      <trkpt lat="45.39721" lon="4.62001">
        <ele>1051.3</ele>
      </trkpt>
      <trkpt lat="45.39728" lon="4.62037">
        <ele>1048.7</ele>
      </trkpt>
      <trkpt lat="45.39763" lon="4.62115">
        <ele>1045</ele>
      </trkpt>
      <trkpt lat="45.39803" lon="4.6218">
        <ele>1043.2</ele>
      </trkpt>
      <trkpt lat="45.39827" lon="4.62197">
        <ele>1040.7</ele>
      </trkpt>
      <trkpt lat="45.39858" lon="4.62224">
        <ele>1037.6</ele>
      </trkpt>
      <trkpt lat="45.39896" lon="4.62234">
        <ele>1038.9</ele>
      </trkpt>
      <trkpt lat="45.39982" lon="4.62303">
        <ele>1030.7</ele>
      </trkpt>
      <trkpt lat="45.4001" lon="4.62328">
        <ele>1027.7</ele>
        <extensions>
          <visugpx:TrkExtension xmlns:visugpx="https://www.visugpx.com/editgpx/">
            <visugpx:node>17</visugpx:node>
            </visugpx:TrkExtension>
        </extensions>
      </trkpt>
      <trkpt lat="45.40266" lon="4.62556">
        <ele>1006.2</ele>
      </trkpt>
      <trkpt lat="45.40321" lon="4.62586">
        <ele>1005</ele>
      </trkpt>
      <trkpt lat="45.40358" lon="4.6261">
        <ele>1002.1</ele>
      </trkpt>
      <trkpt lat="45.40363" lon="4.62617">
        <ele>1000.6</ele>
      </trkpt>
      <trkpt lat="45.40388" lon="4.62608">
        <ele>1000.5</ele>
      </trkpt>
      <trkpt lat="45.40398" lon="4.62597">
        <ele>999.4</ele>
      </trkpt>
      <trkpt lat="45.40417" lon="4.62561">
        <ele>997.5</ele>
      </trkpt>
      <trkpt lat="45.40446" lon="4.62435">
        <ele>993</ele>
      </trkpt>
      <trkpt lat="45.40461" lon="4.62324">
        <ele>989.7</ele>
      </trkpt>
      <trkpt lat="45.40466" lon="4.62295">
        <ele>989.2</ele>
      </trkpt>
      <trkpt lat="45.40472" lon="4.6228">
        <ele>987</ele>
      </trkpt>
      <trkpt lat="45.40475" lon="4.62275">
        <ele>987.5</ele>
      </trkpt>
      <trkpt lat="45.40484" lon="4.62269">
        <ele>988.5</ele>
      </trkpt>
      <trkpt lat="45.40495" lon="4.62262">
        <ele>989.8</ele>
      </trkpt>
      <trkpt lat="45.40525" lon="4.62259">
        <ele>987.7</ele>
      </trkpt>
      <trkpt lat="45.40552" lon="4.62251">
        <ele>990.5</ele>
      </trkpt>
      <trkpt lat="45.40588" lon="4.62229">
        <ele>993.6</ele>
      </trkpt>
      <trkpt lat="45.40676" lon="4.62194">
        <ele>1000.5</ele>
      </trkpt>
      <trkpt lat="45.40707" lon="4.62172">
        <ele>1005.7</ele>
        <extensions>
          <visugpx:TrkExtension xmlns:visugpx="https://www.visugpx.com/editgpx/">
            <visugpx:node>18</visugpx:node>
            </visugpx:TrkExtension>
        </extensions>
      </trkpt>
      <trkpt lat="45.40719" lon="4.62163">
        <ele>1007.3</ele>
      </trkpt>
      <trkpt lat="45.40732" lon="4.62161">
        <ele>1008.3</ele>
      </trkpt>
      <trkpt lat="45.40762" lon="4.62161">
        <ele>1010.3</ele>
      </trkpt>
      <trkpt lat="45.40791" lon="4.62155">
        <ele>1012.9</ele>
      </trkpt>
      <trkpt lat="45.40805" lon="4.62154">
        <ele>1013.2</ele>
      </trkpt>
      <trkpt lat="45.40824" lon="4.62156">
        <ele>1015.9</ele>
      </trkpt>
      <trkpt lat="45.40887" lon="4.62169">
        <ele>1021.1</ele>
      </trkpt>
      <trkpt lat="45.40943" lon="4.62191">
        <ele>1026.4</ele>
      </trkpt>
      <trkpt lat="45.40963" lon="4.62195">
        <ele>1027.9</ele>
      </trkpt>
      <trkpt lat="45.40982" lon="4.62195">
        <ele>1029.6</ele>
      </trkpt>
      <trkpt lat="45.40981" lon="4.62215">
        <ele>1024.9</ele>
      </trkpt>
      <trkpt lat="45.40998" lon="4.62232">
        <ele>1024.3</ele>
      </trkpt>
      <trkpt lat="45.41035" lon="4.62261">
        <ele>1025.1</ele>
      </trkpt>
      <trkpt lat="45.41061" lon="4.62288">
        <ele>1025.8</ele>
      </trkpt>
      <trkpt lat="45.41079" lon="4.62323">
        <ele>1021.7</ele>
      </trkpt>
      <trkpt lat="45.41095" lon="4.62358">
        <ele>1017.2</ele>
      </trkpt>
      <trkpt lat="45.4111" lon="4.62377">
        <ele>1016.3</ele>
      </trkpt>
      <trkpt lat="45.41123" lon="4.62399">
        <ele>1014.2</ele>
      </trkpt>
      <trkpt lat="45.41145" lon="4.62422">
        <ele>1014.6</ele>
      </trkpt>
      <trkpt lat="45.41159" lon="4.62444">
        <ele>1013.2</ele>
      </trkpt>
      <trkpt lat="45.41201" lon="4.62499">
        <ele>1012.1</ele>
        <extensions>
          <visugpx:TrkExtension xmlns:visugpx="https://www.visugpx.com/editgpx/">
            <visugpx:node>19</visugpx:node>
            </visugpx:TrkExtension>
        </extensions>
      </trkpt>
      <trkpt lat="45.41209" lon="4.62509">
        <ele>1012.1</ele>
      </trkpt>
      <trkpt lat="45.41243" lon="4.62558">
        <ele>1012</ele>
      </trkpt>
      <trkpt lat="45.41253" lon="4.62579">
        <ele>1011.9</ele>
      </trkpt>
      <trkpt lat="45.41268" lon="4.62597">
        <ele>1014</ele>
      </trkpt>
      <trkpt lat="45.41281" lon="4.62624">
        <ele>1010.3</ele>
      </trkpt>
      <trkpt lat="45.41302" lon="4.62637">
        <ele>1011.7</ele>
      </trkpt>
      <trkpt lat="45.41322" lon="4.6265">
        <ele>1013.5</ele>
      </trkpt>
      <trkpt lat="45.41344" lon="4.62673">
        <ele>1013.5</ele>
      </trkpt>
      <trkpt lat="45.41369" lon="4.62717">
        <ele>1009</ele>
      </trkpt>
      <trkpt lat="45.41385" lon="4.62726">
        <ele>1011.8</ele>
      </trkpt>
      <trkpt lat="45.41399" lon="4.62752">
        <ele>1008.7</ele>
      </trkpt>
      <trkpt lat="45.41414" lon="4.62762">
        <ele>1007.3</ele>
      </trkpt>
      <trkpt lat="45.41433" lon="4.62763">
        <ele>1005.5</ele>
      </trkpt>
      <trkpt lat="45.4145" lon="4.62749">
        <ele>1006.4</ele>
      </trkpt>
      <trkpt lat="45.41487" lon="4.62742">
        <ele>1002.2</ele>
      </trkpt>
      <trkpt lat="45.41504" lon="4.62725">
        <ele>1003.1</ele>
      </trkpt>
      <trkpt lat="45.41529" lon="4.62727">
        <ele>999.9</ele>
      </trkpt>
      <trkpt lat="45.41541" lon="4.62732">
        <ele>997.4</ele>
      </trkpt>
      <trkpt lat="45.4158" lon="4.6274">
        <ele>988.5</ele>
      </trkpt>
      <trkpt lat="45.4159" lon="4.62744">
        <ele>986.2</ele>
        <extensions>
          <visugpx:TrkExtension xmlns:visugpx="https://www.visugpx.com/editgpx/">
            <visugpx:node>20</visugpx:node>
            </visugpx:TrkExtension>
        </extensions>
      </trkpt>
      <trkpt lat="45.41599" lon="4.62749">
        <ele>984.5</ele>
      </trkpt>
      <trkpt lat="45.4162" lon="4.6283">
        <ele>960.8</ele>
      </trkpt>
      <trkpt lat="45.41632" lon="4.62838">
        <ele>955.4</ele>
      </trkpt>
      <trkpt lat="45.41646" lon="4.62814">
        <ele>954.6</ele>
      </trkpt>
      <trkpt lat="45.4166" lon="4.62778">
        <ele>952.1</ele>
      </trkpt>
      <trkpt lat="45.4167" lon="4.62698">
        <ele>948.3</ele>
      </trkpt>
      <trkpt lat="45.41672" lon="4.62662">
        <ele>943.8</ele>
      </trkpt>
      <trkpt lat="45.41667" lon="4.62622">
        <ele>943</ele>
      </trkpt>
      <trkpt lat="45.41659" lon="4.62603">
        <ele>944.4</ele>
        <extensions>
          <visugpx:TrkExtension xmlns:visugpx="https://www.visugpx.com/editgpx/">
            <visugpx:node>21</visugpx:node>
            </visugpx:TrkExtension>
        </extensions>
      </trkpt>
      <trkpt lat="45.41655" lon="4.62594">
        <ele>944.9</ele>
      </trkpt>
      <trkpt lat="45.41657" lon="4.62498">
        <ele>940.2</ele>
      </trkpt>
      <trkpt lat="45.41663" lon="4.6247">
        <ele>938.4</ele>
      </trkpt>
      <trkpt lat="45.41667" lon="4.62465">
        <ele>937.2</ele>
      </trkpt>
      <trkpt lat="45.41683" lon="4.62447">
        <ele>932.6</ele>
      </trkpt>
      <trkpt lat="45.41748" lon="4.6242">
        <ele>919.1</ele>
      </trkpt>
      <trkpt lat="45.41768" lon="4.62409">
        <ele>917.9</ele>
      </trkpt>
      <trkpt lat="45.41779" lon="4.624">
        <ele>918.2</ele>
        <extensions>
          <visugpx:TrkExtension xmlns:visugpx="https://www.visugpx.com/editgpx/">
            <visugpx:node>22</visugpx:node>
            </visugpx:TrkExtension>
        </extensions>
      </trkpt>
      <trkpt lat="45.41824" lon="4.62369">
        <ele>917.8</ele>
      </trkpt>
      <trkpt lat="45.41843" lon="4.62361">
        <ele>918.7</ele>
      </trkpt>
      <trkpt lat="45.41866" lon="4.62366">
        <ele>916.6</ele>
      </trkpt>
      <trkpt lat="45.41909" lon="4.62363">
        <ele>915.5</ele>
      </trkpt>
      <trkpt lat="45.4191" lon="4.62371">
        <ele>913.6</ele>
      </trkpt>
      <trkpt lat="45.41935" lon="4.62385">
        <ele>909.9</ele>
      </trkpt>
      <trkpt lat="45.41952" lon="4.62407">
        <ele>904.3</ele>
        <extensions>
          <visugpx:TrkExtension xmlns:visugpx="https://www.visugpx.com/editgpx/">
            <visugpx:node>23</visugpx:node>
            </visugpx:TrkExtension>
        </extensions>
      </trkpt>
      <trkpt lat="45.41955" lon="4.62412">
        <ele>903.1</ele>
      </trkpt>
      <trkpt lat="45.41994" lon="4.6242">
        <ele>899</ele>
      </trkpt>
      <trkpt lat="45.41993" lon="4.62434">
        <ele>896.3</ele>
      </trkpt>
      <trkpt lat="45.4198" lon="4.62466">
        <ele>893.5</ele>
      </trkpt>
      <trkpt lat="45.41982" lon="4.62467">
        <ele>893.3</ele>
        <extensions>
          <visugpx:TrkExtension xmlns:visugpx="https://www.visugpx.com/editgpx/">
            <visugpx:node>24</visugpx:node>
            </visugpx:TrkExtension>
        </extensions>
      </trkpt>
    </trkseg>
  </trk>
</gpx>